Data for 10/26/2008

Time Sea-Level Adjusted Pressure Absolute Pressure Temperature Relative Humidity Dew Point Precipitation   
(mb) (inHg) (mb) (inHg) (C) (F) (%) (C) (F) (mm) (in)
00:01 1027 30.33 856 25.28 -0.1 31.7 40 -12.2 10 0
00:02 1027 30.33 856 25.28 1 33.8 34 -13.1 8.3 0
00:03 1027 30.33 856 25.28 2.1 35.7 31 -13.3 8.1 0
00:04 1027 30.33 856 25.28 2.8 37 29 -13.7 7.4 0
00:05 1027 30.33 856 25.28 3.5 38.2 28 -13.6 7.6 0
00:06 1027 30.33 856 25.28 3.6 38.4 30 -12.3 9.8 0
00:07 1027 30.33 856 25.28 2.6 36.7 36 -11.1 12 0
00:08 1027 30.33 856 25.28 1.6 34.9 41 -10.1 13.7 0
00:09 1027 30.33 856 25.28 0.5 32.9 44 -10.3 13.4 0
00:10 1027 30.33 856 25.28 -0 31.9 44 -10.9 12.4 0
00:11 1027 30.33 856 25.28 0 32.1 42 -11.4 11.4 0
00:12 1027 30.33 856 25.28 0.4 32.7 35 -13.3 8.1 0
00:13 1027 30.33 856 25.28 1.4 34.6 33 -13.3 8.1 0
00:14 1027 30.33 856 25.28 2.4 36.3 29 -14.1 6.6 0
00:15 1027 30.33 856 25.28 3.5 38.2 27 -14.1 6.7 0
00:16 1027 30.33 856 25.28 4.1 39.3 26 -14 6.8 0
00:17 1027 30.33 856 25.28 4.4 39.9 25 -14 6.8 0
00:18 1027 30.33 856 25.28 4.6 40.3 24 -14.2 6.5 0
00:19 1027 30.33 856 25.28 4.9 40.8 24 -14.1 6.5 0
00:20 1027 30.33 856 25.28 5.2 41.3 23 -14.2 6.4 0
00:21 1027 30.33 856 25.28 5.4 41.8 23 -14.3 6.2 0
00:22 1027 30.33 856 25.28 5.4 41.8 25 -13.2 8.3 0
00:23 1027 30.33 856 25.28 5.1 41.1 25 -13.6 7.6 0
00:24 1027 30.33 856 25.28 5 40.9 24 -13.8 7.1 0
00:25 1027 30.33 856 25.28 5 41.1 24 -14 6.7 0
00:26 1027 30.33 856 25.28 5.2 41.4 27 -12.4 9.6 0
00:27 1027 30.33 856 25.28 5 41 29 -11.5 11.4 0
00:28 1027 30.33 856 25.28 4 39.1 32 -11.4 11.5 0
00:29 1027 30.33 856 25.28 2.7 36.9 32 -12.4 9.6 0
00:30 1027 30.33 857 25.31 2.1 35.7 35 -11.8 10.8 0
00:31 1027 30.33 857 25.31 1.8 35.2 32 -13.2 8.3 0
00:32 1027 30.33 857 25.31 1.8 35.2 36 -11.7 10.9 0
00:33 1027 30.33 857 25.31 1 33.9 38 -11.9 10.6 0
00:34 1027 30.33 857 25.31 1 33.7 33 -13.5 7.7 0
00:35 1027 30.33 857 25.31 1.7 35.1 30 -13.9 7 0
00:36 1027 30.33 857 25.31 2.6 36.6 28 -14.3 6.3 0
00:37 1027 30.33 857 25.31 3.3 37.9 26 -14.4 6.1 0
00:38 1028 30.36 857 25.31 3.8 38.9 25 -14.3 6.2 0
00:39 1028 30.36 857 25.31 4 39.3 25 -14.4 6 0
00:40 1028 30.36 857 25.31 4.3 39.8 24 -14.4 6 0
00:41 1028 30.36 857 25.31 4.5 40.1 24 -14.4 6 0
00:42 1028 30.36 857 25.31 4.7 40.5 24 -14.2 6.5 0
00:43 1028 30.36 857 25.31 4.9 40.8 24 -13.9 7 0
00:44 1028 30.36 857 25.31 4.6 40.2 30 -11.4 11.4 0
00:45 1028 30.36 857 25.31 3.1 37.6 30 -13 8.5 0
00:46 1028 30.36 857 25.31 3 37.4 28 -13.8 7.2 0
00:47 1028 30.36 857 25.31 3.3 38 30 -12.7 9.1 0
00:48 1028 30.36 857 25.31 2.8 37.1 31 -12.8 9 0
00:49 1028 30.36 857 25.31 2.5 36.6 32 -12.5 9.5 0
00:50 1028 30.36 857 25.31 2 35.6 37 -11.2 11.8 0
00:51 1028 30.36 857 25.31 1.3 34.3 35 -12.6 9.4 0
00:52 1028 30.36 857 25.31 1.7 35 35 -12.3 9.8 0
00:53 1028 30.36 857 25.31 2.3 36.1 30 -13.6 7.4 0
00:54 1028 30.36 857 25.31 2.8 37 29 -13.4 7.9 0
00:55 1028 30.36 857 25.31 3.4 38.1 26 -14.6 5.8 0
00:56 1028 30.36 857 25.31 3.9 39 30 -12.4 9.7 0
00:57 1028 30.36 857 25.31 3.2 37.8 30 -12.8 9 0
00:58 1028 30.36 857 25.31 3 37.4 30 -12.8 9 0
00:59 1028 30.36 857 25.31 2.8 37.1 34 -11.5 11.4 0
01:00 1028 30.36 857 25.31 2.5 36.6 32 -12.7 9.2 0
01:01 1028 30.36 857 25.31 2.6 36.6 31 -12.8 9 0
01:02 1028 30.36 857 25.31 2.9 37.2 29 -13.6 7.5 0
01:03 1028 30.36 857 25.31 3.5 38.2 30 -12.6 9.3 0
01:04 1028 30.36 857 25.31 3.7 38.7 30 -12.2 10.1 0
01:05 1028 30.36 857 25.31 3.7 38.7 28 -13.3 8.1 0
01:06 1028 30.36 857 25.31 4.1 39.3 25 -14.4 6.1 0
01:07 1028 30.36 857 25.31 4.3 39.8 28 -12.6 9.3 0
01:08 1028 30.36 857 25.31 4.2 39.5 28 -12.7 9.1 0
01:09 1028 30.36 857 25.31 4.1 39.3 28 -12.7 9.1 0
01:10 1028 30.36 857 25.31 4 39.2 28 -13.1 8.5 0
01:11 1028 30.36 857 25.31 4.1 39.3 30 -12 10.4 0
01:12 1028 30.36 857 25.31 3.6 38.4 33 -11.2 11.8 0
01:13 1028 30.36 857 25.31 2.8 37 36 -10.9 12.4 0
01:14 1028 30.36 857 25.31 1.9 35.4 38 -11 12.2 0
01:15 1028 30.36 857 25.31 1.3 34.4 40 -11 12.2 0
01:16 1028 30.36 857 25.31 1.1 33.9 39 -11.4 11.5 0
01:17 1028 30.36 857 25.31 1.1 34 39 -11.4 11.4 0
01:18 1028 30.36 857 25.31 1.2 34.1 36 -12.3 9.9 0
01:19 1028 30.36 857 25.31 1.6 34.9 34 -12.5 9.4 0
01:20 1028 30.36 857 25.31 2 35.5 35 -12.1 10.3 0
01:21 1028 30.36 857 25.31 2 35.6 35 -12 10.4 0
01:22 1028 30.36 857 25.31 2 35.5 36 -11.7 11 0
01:23 1028 30.36 857 25.31 1.7 35.1 37 -11.5 11.2 0
01:24 1028 30.36 857 25.31 1.3 34.4 40 -10.7 12.7 0
01:25 1028 30.36 857 25.31 0.6 33.1 43 -10.5 13.1 0
01:26 1028 30.36 857 25.31 -0.1 31.9 46 -10.3 13.5 0
01:27 1028 30.36 857 25.31 -0.6 31 48 -10.2 13.7 0
01:28 1028 30.36 857 25.31 -1 30.3 50 -10.1 13.8 0
01:29 1028 30.36 857 25.31 -1.2 29.9 50 -10.3 13.5 0
01:30 1028 30.36 857 25.31 -1.2 29.8 50 -10.3 13.4 0
01:31 1028 30.36 857 25.31 -1.3 29.7 50 -10.4 13.4 0
01:32 1028 30.36 857 25.31 -1.2 29.8 50 -10.4 13.2 0
01:33 1028 30.36 857 25.31 -1.2 29.8 50 -10.4 13.2 0
01:34 1028 30.36 858 25.34 -1.3 29.7 49 -10.6 12.9 0
01:35 1028 30.36 858 25.34 -1.2 29.8 49 -10.6 12.9 0
01:36 1028 30.36 858 25.34 -1.2 29.9 48 -10.7 12.7 0
01:37 1028 30.36 858 25.34 -1 30.2 47 -10.8 12.5 0
01:38 1028 30.36 858 25.34 -0.9 30.4 47 -10.8 12.5 0
01:39 1028 30.36 858 25.34 -0.7 30.8 44 -11.5 11.4 0
01:40 1029 30.39 858 25.34 -0.3 31.5 44 -11.1 12 0
01:41 1029 30.39 858 25.34 -0.1 31.8 42 -11.6 11.1 0
01:42 1028 30.36 858 25.34 0.2 32.4 39 -12.2 10 0
01:43 1028 30.36 858 25.34 0.6 33.1 38 -12 10.3 0
01:44 1028 30.36 858 25.34 0.9 33.7 36 -12.6 9.3 0
01:45 1028 30.36 858 25.34 1.3 34.4 35 -12.4 9.7 0
01:46 1028 30.36 858 25.34 1.4 34.5 37 -11.8 10.7 0
01:47 1028 30.36 858 25.34 1.1 34 39 -11.3 11.6 0
01:48 1028 30.36 858 25.34 0.7 33.2 42 -10.9 12.4 0
01:49 1029 30.39 858 25.34 0 32 43 -11 12.1 0
01:50 1029 30.39 858 25.34 -0.2 31.7 42 -11.7 11 0
01:51 1029 30.39 858 25.34 0 32 43 -11.2 11.8 0
01:52 1029 30.39 858 25.34 0 32 44 -10.9 12.4 0
01:53 1029 30.39 858 25.34 -0.2 31.7 46 -10.6 13 0
01:54 1029 30.39 858 25.34 -0.5 31.1 47 -10.3 13.4 0
01:55 1029 30.39 858 25.34 -0.8 30.5 48 -10.4 13.3 0
01:56 1029 30.39 858 25.34 -1.1 30.1 50 -10.2 13.7 0
01:57 1029 30.39 858 25.34 -1.3 29.7 51 -10.1 13.9 0
01:58 1029 30.39 858 25.34 -1.4 29.4 50 -10.5 13.2 0
01:59 1029 30.39 858 25.34 -1.4 29.4 51 -10.2 13.6 0
02:00 1029 30.39 858 25.34 -1.5 29.3 51 -10.3 13.5 0
02:01 1029 30.39 858 25.34 -1.6 29.1 52 -10.2 13.6 0
02:02 1029 30.39 858 25.34 -1.6 29.1 51 -10.5 13 0
02:03 1029 30.39 858 25.34 -1.5 29.3 50 -10.7 12.8 0
02:04 1029 30.39 858 25.34 -1.5 29.3 51 -10.4 13.2 0
02:05 1029 30.39 858 25.34 -1.5 29.4 50 -10.6 12.9 0
02:06 1029 30.39 858 25.34 -1.3 29.7 49 -10.8 12.5 0
02:07 1029 30.39 858 25.34 -1.1 30 50 -10.2 13.7 0
02:08 1029 30.39 858 25.34 -1.3 29.7 49 -10.7 12.8 0
02:09 1029 30.39 858 25.34 -1 30.1 47 -11 12.2 0
02:10 1029 30.39 858 25.34 -0.7 30.7 44 -11.4 11.5 0
02:11 1029 30.39 858 25.34 -0.4 31.3 43 -11.5 11.3 0
02:12 1029 30.39 858 25.34 -0.1 31.8 43 -11.3 11.7 0
02:13 1029 30.39 858 25.34 0.1 32.1 43 -11.2 11.9 0
02:14 1029 30.39 858 25.34 0 32.1 43 -11.1 12 0
02:15 1029 30.39 858 25.34 -0.1 31.8 45 -10.5 13 0
02:16 1029 30.39 858 25.34 -0.3 31.4 46 -10.5 13 0
02:17 1029 30.39 858 25.34 -0.5 31.1 47 -10.6 12.9 0
02:18 1029 30.39 858 25.34 -0.6 30.9 47 -10.6 12.9 0
02:19 1029 30.39 858 25.34 -0.8 30.6 48 -10.5 13.1 0
02:20 1029 30.39 858 25.34 -0.9 30.5 49 -10.4 13.3 0
02:21 1029 30.39 858 25.34 -1 30.3 49 -10.5 13.2 0
02:22 1029 30.39 858 25.34 -1 30.1 48 -10.7 12.7 0
02:23 1029 30.39 859 25.37 -0.9 30.3 47 -10.8 12.5 0
02:24 1029 30.39 859 25.37 -0.9 30.5 48 -10.6 12.9 0
02:25 1029 30.39 859 25.37 -0.8 30.5 47 -10.7 12.7 0
02:26 1029 30.39 859 25.37 -0.8 30.5 47 -10.9 12.4 0
02:27 1029 30.39 858 25.34 -0.8 30.6 46 -10.9 12.3 0
02:28 1029 30.39 859 25.37 -0.7 30.8 43 -11.7 11 0
02:29 1029 30.39 859 25.37 -0.4 31.3 43 -11.5 11.2 0
02:30 1030 30.42 859 25.37 -0.3 31.5 44 -11.2 11.9 0
02:31 1030 30.42 859 25.37 -0.4 31.3 45 -11.1 12.1 0
02:32 1030 30.42 859 25.37 -0.4 31.2 44 -11.2 11.8 0
02:33 1030 30.42 859 25.37 -0.5 31.1 46 -10.8 12.5 0
02:34 1030 30.42 859 25.37 -0.7 30.8 46 -10.9 12.4 0
02:35 1030 30.42 859 25.37 -0.8 30.6 46 -11 12.3 0
02:36 1030 30.42 859 25.37 -0.9 30.5 47 -10.9 12.3 0
02:37 1030 30.42 859 25.37 -0.9 30.5 45 -11.4 11.6 0
02:38 1030 30.42 859 25.37 -0.7 30.7 44 -11.6 11.1 0
02:39 1030 30.42 859 25.37 -0.5 31.1 43 -11.7 10.9 0
02:40 1030 30.42 859 25.37 -0.3 31.5 42 -11.8 10.8 0
02:41 1030 30.42 859 25.37 -0.2 31.7 42 -11.5 11.4 0
02:42 1030 30.42 859 25.37 -0.2 31.7 42 -11.6 11.2 0
02:43 1030 30.42 859 25.37 -0.2 31.7 42 -11.5 11.4 0
02:44 1030 30.42 859 25.37 -0.2 31.7 42 -11.7 11 0
02:45 1030 30.42 859 25.37 -0.1 31.8 42 -11.7 11 0
02:46 1030 30.42 859 25.37 -0.1 31.9 42 -11.5 11.2 0
02:47 1030 30.42 859 25.37 -0 32 42 -11.4 11.5 0
02:48 1030 30.42 859 25.37 0.1 32.2 43 -11.2 11.9 0
02:49 1030 30.42 859 25.37 0.1 32.2 43 -10.9 12.3 0
02:50 1030 30.42 859 25.37 0 32 44 -10.8 12.6 0
02:51 1030 30.42 859 25.37 -0.2 31.6 45 -10.9 12.4 0
02:52 1030 30.42 859 25.37 -0.4 31.3 46 -10.7 12.7 0
02:53 1030 30.42 859 25.37 -0.6 30.9 46 -10.9 12.4 0
02:54 1030 30.42 859 25.37 -0.7 30.7 46 -10.9 12.4 0
02:55 1030 30.42 859 25.37 -0.8 30.6 46 -10.9 12.3 0
02:56 1030 30.42 859 25.37 -0.8 30.5 47 -10.9 12.3 0
02:57 1030 30.42 859 25.37 -0.9 30.5 46 -11 12.3 0
02:58 1030 30.42 859 25.37 -0.9 30.4 46 -11.1 12 0
02:59 1030 30.42 859 25.37 -0.8 30.6 46 -11.2 11.9 0
03:00 1030 30.42 859 25.37 -0.6 30.9 44 -11.4 11.5 0
03:01 1030 30.42 859 25.37 -0.4 31.3 42 -11.8 10.8 0
03:02 1030 30.42 859 25.37 -0.1 31.9 42 -11.5 11.3 0
03:03 1030 30.42 859 25.37 0.2 32.3 41 -11.5 11.3 0
03:04 1030 30.42 859 25.37 0.2 32.4 42 -11.3 11.7 0
03:05 1030 30.42 859 25.37 0.2 32.3 42 -11.4 11.6 0
03:06 1030 30.42 859 25.37 0.1 32.2 42 -11.3 11.7 0
03:07 1030 30.42 859 25.37 0.2 32.3 42 -11.3 11.6 0
03:08 1030 30.42 859 25.37 0.2 32.3 42 -11.5 11.4 0
03:09 1030 30.42 859 25.37 0.2 32.4 42 -11.4 11.5 0
03:10 1030 30.42 859 25.37 0.2 32.3 42 -11.2 11.9 0
03:11 1030 30.42 859 25.37 0 32 43 -11.1 11.9 0
03:12 1030 30.42 859 25.37 -0.1 31.8 43 -11.2 11.8 0
03:13 1030 30.42 859 25.37 -0.1 31.8 42 -11.5 11.2 0
03:14 1030 30.42 859 25.37 0.1 32.1 41 -11.7 10.9 0
03:15 1030 30.42 860 25.4 0.2 32.4 40 -11.8 10.7 0
03:16 1030 30.42 860 25.4 0.3 32.5 41 -11.5 11.2 0
03:17 1030 30.42 860 25.4 0.2 32.3 42 -11.2 11.8 0
03:18 1030 30.42 860 25.4 -0 32 43 -11.2 11.9 0
03:19 1030 30.42 860 25.4 -0.2 31.7 44 -11.1 12 0
03:20 1030 30.42 860 25.4 -0.3 31.5 44 -11 12.2 0
03:21 1030 30.42 860 25.4 -0.4 31.4 44 -11.2 11.8 0
03:22 1030 30.42 860 25.4 -0.3 31.5 44 -11.2 11.9 0
03:23 1031 30.45 860 25.4 -0.2 31.7 44 -11.1 12.1 0
03:24 1031 30.45 860 25.4 -0.1 31.8 44 -11 12.2 0
03:25 1031 30.45 860 25.4 -0.2 31.7 45 -10.7 12.7 0
03:26 1031 30.45 860 25.4 -0.4 31.3 46 -10.6 12.9 0
03:27 1031 30.45 860 25.4 -0.5 31 47 -10.6 12.9 0
03:28 1031 30.45 860 25.4 -0.7 30.7 47 -10.7 12.8 0
03:29 1031 30.45 860 25.4 -0.8 30.5 48 -10.6 12.9 0
03:30 1031 30.45 860 25.4 -0.8 30.6 47 -10.6 12.8 0
03:31 1031 30.45 860 25.4 -0.8 30.6 48 -10.5 13 0
03:32 1031 30.45 860 25.4 -0.7 30.7 48 -10.5 13 0
03:33 1031 30.45 860 25.4 -0.6 30.9 47 -10.7 12.8 0
03:34 1031 30.45 860 25.4 -0.6 31 47 -10.5 13.2 0
03:35 1031 30.45 860 25.4 -0.7 30.7 48 -10.4 13.2 0
03:36 1031 30.45 860 25.4 -0.8 30.6 49 -10.3 13.4 0
03:37 1031 30.45 860 25.4 -1 30.3 49 -10.5 13.1 0
03:38 1031 30.45 860 25.4 -1.1 30 49 -10.6 12.8 0
03:39 1031 30.45 860 25.4 -1.1 30 48 -10.7 12.8 0
03:40 1031 30.45 860 25.4 -1.1 30 48 -10.8 12.6 0
03:41 1031 30.45 860 25.4 -1.1 30.1 49 -10.5 13 0
03:42 1031 30.45 860 25.4 -1.3 29.7 50 -10.4 13.2 0
03:43 1031 30.45 860 25.4 -1.5 29.3 51 -10.4 13.4 0
03:44 1031 30.45 860 25.4 -1.7 29 51 -10.5 13.1 0
03:45 1031 30.45 860 25.4 -1.8 28.8 52 -10.5 13.1 0
03:46 1031 30.45 860 25.4 -1.9 28.7 52 -10.4 13.3 0
03:47 1031 30.45 860 25.4 -2.1 28.3 53 -10.3 13.5 0
03:48 1031 30.45 860 25.4 -2.2 28 53 -10.4 13.2 0
03:49 1031 30.45 860 25.4 -2.3 27.8 55 -10.3 13.5 0
03:50 1031 30.45 860 25.4 -2.5 27.5 55 -10.3 13.5 0
03:51 1031 30.45 860 25.4 -2.6 27.4 55 -10.5 13.1 0
03:52 1031 30.45 860 25.4 -2.5 27.5 54 -10.5 13.1 0
03:53 1031 30.45 860 25.4 -2.5 27.6 55 -10.4 13.3 0
03:54 1031 30.45 860 25.4 -2.5 27.5 55 -10.3 13.4 0
03:55 1031 30.45 860 25.4 -2.7 27.2 56 -10.2 13.7 0
03:56 1031 30.45 860 25.4 -2.8 27 57 -10.2 13.6 0
03:57 1031 30.45 860 25.4 -2.8 27 57 -10.1 13.8 0
03:58 1031 30.45 860 25.4 -3 26.6 58 -10 14 0
03:59 1031 30.45 860 25.4 -3 26.6 59 -10 13.9 0
04:00 1031 30.45 860 25.4 -2.9 26.8 58 -10 14 0
04:01 1031 30.45 860 25.4 -2.8 27 59 -9.8 14.4 0
04:02 1031 30.45 860 25.4 -3 26.7 60 -9.8 14.4 0
04:03 1031 30.45 860 25.4 -2.9 26.8 60 -9.7 14.6 0
04:04 1031 30.45 860 25.4 -2.9 26.8 60 -9.5 14.8 0
04:05 1031 30.45 860 25.4 -2.9 26.8 61 -9.4 15.1 0
04:06 1031 30.45 860 25.4 -2.8 26.9 61 -9.3 15.3 0
04:07 1031 30.45 860 25.4 -2.7 27.1 61 -9.3 15.3 0
04:08 1031 30.45 860 25.4 -2.6 27.3 60 -9.3 15.2 0
04:09 1031 30.45 860 25.4 -2.5 27.5 60 -9.3 15.3 0
04:10 1031 30.45 861 25.43 -2.5 27.5 60 -9.3 15.3 0
04:11 1031 30.45 861 25.43 -2.5 27.5 60 -9.2 15.5 0
04:12 1031 30.45 860 25.4 -2.5 27.5 60 -9.3 15.3 0
04:13 1031 30.45 861 25.43 -2.3 27.9 59 -9.2 15.4 0
04:14 1031 30.45 861 25.43 -2.1 28.2 57 -9.4 15 0
04:15 1031 30.45 861 25.43 -2.1 28.2 58 -9.2 15.4 0
04:16 1031 30.45 861 25.43 -2.1 28.2 58 -9.3 15.3 0
04:17 1031 30.45 861 25.43 -2.1 28.2 59 -9.1 15.6 0
04:18 1031 30.45 861 25.43 -2.1 28.3 57 -9.4 15.1 0
04:19 1031 30.45 861 25.43 -1.8 28.7 56 -9.4 15.1 0
04:20 1032 30.47 861 25.43 -1.8 28.8 56 -9.4 15.1 0
04:21 1032 30.47 861 25.43 -1.6 29 57 -9.2 15.5 0
04:22 1032 30.47 861 25.43 -1.7 29 56 -9.3 15.3 0
04:23 1032 30.47 861 25.43 -1.7 28.9 57 -9.1 15.6 0
04:24 1032 30.47 861 25.43 -1.8 28.8 58 -9.1 15.7 0
04:25 1032 30.47 861 25.43 -2 28.4 58 -9.1 15.6 0
04:26 1032 30.47 861 25.43 -2.2 28 60 -9.1 15.7 0
04:27 1032 30.47 861 25.43 -2.3 27.8 59 -9.3 15.3 0
04:28 1032 30.47 861 25.43 -2.3 27.8 59 -9.2 15.4 0
04:29 1032 30.47 861 25.43 -2.4 27.7 59 -9.4 15.1 0
04:30 1032 30.47 861 25.43 -2.2 28.1 57 -9.5 14.8 0
04:31 1032 30.47 861 25.43 -2 28.5 57 -9.4 15 0
04:32 1032 30.47 861 25.43 -1.9 28.6 56 -9.5 14.9 0
04:33 1032 30.47 861 25.43 -1.5 29.2 55 -9.5 15 0
04:34 1032 30.47 861 25.43 -1.4 29.6 55 -9.4 15.1 0
04:35 1032 30.47 861 25.43 -1.3 29.8 54 -9.5 14.9 0
04:36 1032 30.47 861 25.43 -1.1 30.1 53 -9.4 15.1 0
04:37 1032 30.47 861 25.43 -0.9 30.4 51 -9.7 14.6 0
04:38 1032 30.47 861 25.43 -0.6 30.8 51 -9.6 14.7 0
04:39 1032 30.47 861 25.43 -0.7 30.7 51 -9.7 14.5 0
04:40 1032 30.47 861 25.43 -0.8 30.6 51 -9.6 14.7 0
04:41 1032 30.47 861 25.43 -1.1 30.1 53 -9.6 14.8 0
04:42 1032 30.47 861 25.43 -1.4 29.6 54 -9.5 14.9 0
04:43 1032 30.47 861 25.43 -1.4 29.4 55 -9.4 15 0
04:44 1032 30.47 861 25.43 -1.7 29 55 -9.5 14.9 0
04:45 1032 30.47 861 25.43 -1.9 28.7 56 -9.5 14.9 0
04:46 1032 30.47 861 25.43 -1.9 28.6 56 -9.5 14.9 0
04:47 1032 30.47 861 25.43 -1.6 29 54 -9.7 14.5 0
04:48 1032 30.47 861 25.43 -1.5 29.2 54 -9.7 14.5 0
04:49 1032 30.47 861 25.43 -1.7 28.9 55 -9.7 14.6 0
04:50 1032 30.47 861 25.43 -2 28.4 56 -9.6 14.7 0
04:51 1032 30.47 861 25.43 -2.3 27.9 57 -9.6 14.7 0
04:52 1032 30.47 861 25.43 -2.6 27.3 58 -9.7 14.5 0
04:53 1032 30.47 861 25.43 -2.5 27.5 57 -9.9 14.3 0
04:54 1032 30.47 861 25.43 -2.2 28.1 56 -9.8 14.4 0
04:55 1032 30.47 861 25.43 -2.3 27.8 57 -9.7 14.6 0
04:56 1032 30.47 862 25.45 -2.8 26.9 59 -9.7 14.6 0
04:57 1032 30.47 862 25.45 -3 26.6 60 -9.7 14.6 0
04:58 1032 30.47 862 25.45 -3.1 26.5 60 -9.7 14.5 0
04:59 1032 30.47 862 25.45 -2.9 26.7 59 -9.8 14.3 0
05:00 1032 30.47 862 25.45 -2.7 27.2 58 -9.8 14.4 0
05:01 1032 30.47 862 25.45 -2.9 26.8 60 -9.7 14.6 0
05:02 1032 30.47 862 25.45 -3.3 26 62 -9.6 14.6 0
05:03 1032 30.47 862 25.45 -3.7 25.4 63 -9.7 14.6 0
05:04 1032 30.47 862 25.45 -3.4 25.9 61 -9.8 14.4 0
05:05 1032 30.47 862 25.45 -3 26.5 60 -9.8 14.4 0
05:06 1032 30.47 862 25.45 -3 26.5 60 -9.7 14.5 0
05:07 1032 30.47 862 25.45 -3.2 26.3 61 -9.7 14.6 0
05:08 1033 30.5 862 25.45 -3.5 25.8 62 -9.7 14.5 0
05:09 1032 30.47 862 25.45 -3.5 25.7 62 -9.8 14.4 0
05:10 1032 30.47 862 25.45 -3.3 26 61 -9.9 14.2 0
05:11 1033 30.5 862 25.45 -3.2 26.2 61 -9.8 14.4 0
05:12 1033 30.5 862 25.45 -3.3 26.1 61 -9.7 14.5 0
05:13 1033 30.5 862 25.45 -3.5 25.7 62 -9.7 14.6 0
05:14 1033 30.5 862 25.45 -3.6 25.6 63 -9.7 14.6 0
05:15 1033 30.5 862 25.45 -3.8 25.2 64 -9.7 14.6 0
05:16 1033 30.5 862 25.45 -3.9 25 64 -9.7 14.5 0
05:17 1033 30.5 862 25.45 -4 24.9 65 -9.7 14.6 0
05:18 1033 30.5 862 25.45 -4 24.9 64 -9.7 14.5 0
05:19 1033 30.5 862 25.45 -3.8 25.2 64 -9.7 14.6 0
05:20 1033 30.5 862 25.45 -3.5 25.7 63 -9.6 14.7 0
05:21 1033 30.5 862 25.45 -3.2 26.2 62 -9.5 14.9 0
05:22 1033 30.5 862 25.45 -3.4 25.9 63 -9.4 15 0
05:23 1033 30.5 862 25.45 -3.9 25 65 -9.4 15 0
05:24 1033 30.5 862 25.45 -4.3 24.3 67 -9.5 14.9 0
05:25 1033 30.5 862 25.45 -4.7 23.6 69 -9.5 15 0
05:26 1033 30.5 862 25.45 -5 23.1 71 -9.5 14.9 0
05:27 1033 30.5 862 25.45 -5.1 22.9 71 -9.5 15 0
05:28 1033 30.5 862 25.45 -5.2 22.6 72 -9.5 14.9 0
05:29 1033 30.5 862 25.45 -5.4 22.3 73 -9.5 14.9 0
05:30 1033 30.5 862 25.45 -5.5 22.2 74 -9.5 14.9 0
05:31 1033 30.5 862 25.45 -5.3 22.5 73 -9.4 15 0
05:32 1033 30.5 862 25.45 -5.2 22.7 72 -9.5 14.9 0
05:33 1033 30.5 862 25.45 -5.4 22.3 73 -9.5 14.9 0
05:34 1033 30.5 862 25.45 -5.6 21.8 75 -9.4 15 0
05:35 1033 30.5 862 25.45 -5.8 21.6 75 -9.5 14.9 0
05:36 1033 30.5 862 25.45 -6 21.2 76 -9.5 14.8 0
05:37 1033 30.5 862 25.45 -6 21.2 77 -9.3 15.2 0
05:38 1033 30.5 862 25.45 -5.8 21.5 76 -9.5 15 0
05:39 1033 30.5 862 25.45 -5.6 21.9 74 -9.5 14.9 0
05:40 1033 30.5 862 25.45 -5.4 22.2 74 -9.4 15.1 0
05:41 1033 30.5 862 25.45 -5.5 22.1 74 -9.5 15 0
05:42 1033 30.5 862 25.45 -5.5 22.1 74 -9.4 15 0
05:43 1033 30.5 862 25.45 -5.5 22 74 -9.4 15 0
05:44 1033 30.5 863 25.48 -5.5 22.1 73 -9.6 14.7 0
05:45 1033 30.5 863 25.48 -5.8 21.6 72 -10 14 0
05:46 1033 30.5 863 25.48 -6.3 20.7 76 -9.9 14.2 0
05:47 1033 30.5 863 25.48 -6.5 20.3 77 -9.9 14.2 0
05:48 1033 30.5 863 25.48 -6.5 20.4 78 -9.8 14.4 0
05:49 1033 30.5 863 25.48 -6.1 21 74 -9.9 14.1 0
05:50 1034 30.53 863 25.48 -5.7 21.8 72 -9.9 14.2 0
05:51 1034 30.53 863 25.48 -5.2 22.6 71 -9.8 14.4 0
05:52 1034 30.53 863 25.48 -4.9 23.2 70 -9.5 14.8 0
05:53 1034 30.53 863 25.48 -4.8 23.3 70 -9.5 15 0
05:54 1034 30.53 863 25.48 -4.7 23.5 70 -9.4 15 0
05:55 1034 30.53 863 25.48 -4.6 23.8 69 -9.4 15.2 0
05:56 1034 30.53 863 25.48 -4.5 23.9 70 -9.2 15.4 0
05:57 1034 30.53 863 25.48 -4.6 23.7 71 -9.1 15.7 0
05:58 1034 30.53 863 25.48 -4.7 23.6 72 -9.1 15.7 0
05:59 1034 30.53 863 25.48 -4.8 23.3 72 -9.1 15.7 0
06:00 1034 30.53 863 25.48 -4.9 23.1 73 -9 15.8 0
06:01 1034 30.53 863 25.48 -5.1 22.9 74 -9 15.7 0
06:02 1034 30.53 863 25.48 -5.2 22.6 75 -9 15.9 0
06:03 1034 30.53 863 25.48 -5.3 22.4 76 -8.9 16 0
06:04 1034 30.53 863 25.48 -5.4 22.2 76 -9.1 15.7 0
06:05 1034 30.53 863 25.48 -5.7 21.8 78 -9 15.9 0
06:06 1034 30.53 863 25.48 -5.8 21.6 79 -8.8 16.1 0
06:07 1034 30.53 863 25.48 -5.8 21.7 79 -8.9 16 0
06:08 1034 30.53 863 25.48 -5.8 21.6 80 -8.7 16.3 0
06:09 1034 30.53 863 25.48 -5.7 21.8 80 -8.6 16.5 0
06:10 1034 30.53 863 25.48 -5.5 22 79 -8.7 16.4 0
06:11 1034 30.53 863 25.48 -5.6 21.9 82 -8.3 17.1 0
06:12 1034 30.53 863 25.48 -5.3 22.5 83 -7.7 18.2 0
06:13 1034 30.53 863 25.48 -4.8 23.3 81 -7.6 18.4 0
06:14 1034 30.53 863 25.48 -4.6 23.7 82 -7.3 18.9 0
06:15 1034 30.53 863 25.48 -4.3 24.3 80 -7.2 19.1 0
06:16 1034 30.53 863 25.48 -4 24.8 79 -7.2 19.1 0
06:17 1034 30.53 863 25.48 -3.7 25.3 77 -7.2 19.1 0
06:18 1034 30.53 863 25.48 -3.8 25.2 77 -7.2 19.1 0
06:19 1034 30.53 863 25.48 -3.9 25 78 -7.2 19 0
06:20 1034 30.53 863 25.48 -4 24.8 78 -7.2 19 0
06:21 1034 30.53 863 25.48 -4.1 24.7 79 -7.2 19 0
06:22 1034 30.53 864 25.51 -4.1 24.7 79 -7.2 19.1 0
06:23 1034 30.53 864 25.51 -4.1 24.7 79 -7.2 19.1 0
06:24 1034 30.53 864 25.51 -4.1 24.6 79 -7.2 19 0
06:25 1034 30.53 864 25.51 -4.1 24.7 79 -7.2 19 0
06:26 1034 30.53 864 25.51 -4.2 24.5 79 -7.3 18.9 0
06:27 1034 30.53 864 25.51 -4.2 24.4 79 -7.3 18.9 0
06:28 1034 30.53 864 25.51 -4.2 24.4 79 -7.3 18.9 0
06:29 1034 30.53 864 25.51 -4.3 24.2 80 -7.3 18.9 0
06:30 1034 30.53 864 25.51 -4.3 24.2 80 -7.3 18.9 0
06:31 1034 30.53 864 25.51 -4.3 24.3 79 -7.3 18.8 0
06:32 1035 30.56 864 25.51 -4.2 24.4 79 -7.4 18.7 0
06:33 1035 30.56 864 25.51 -4.2 24.5 79 -7.4 18.7 0
06:34 1035 30.56 864 25.51 -4.1 24.6 78 -7.4 18.7 0
06:35 1035 30.56 864 25.51 -4.1 24.7 78 -7.4 18.7 0
06:36 1035 30.56 864 25.51 -4.1 24.7 78 -7.4 18.7 0
06:37 1035 30.56 864 25.51 -4.1 24.6 78 -7.4 18.6 0
06:38 1035 30.56 864 25.51 -4.1 24.7 77 -7.5 18.6 0
06:39 1035 30.56 864 25.51 -3.9 24.9 77 -7.4 18.7 0
06:40 1035 30.56 864 25.51 -3.9 25 77 -7.4 18.6 0
06:41 1035 30.56 864 25.51 -3.8 25.1 76 -7.5 18.5 0
06:42 1035 30.56 864 25.51 -3.8 25.2 75 -7.6 18.4 0
06:43 1035 30.56 864 25.51 -3.6 25.5 74 -7.6 18.4 0
06:44 1035 30.56 864 25.51 -3.5 25.6 74 -7.6 18.3 0
06:45 1035 30.56 864 25.51 -3.5 25.7 73 -7.7 18.2 0
06:46 1035 30.56 864 25.51 -3.4 25.9 72 -7.7 18.1 0
06:47 1035 30.56 864 25.51 -3.3 26 72 -7.7 18.1 0
06:48 1035 30.56 864 25.51 -3.4 25.9 72 -7.8 17.9 0
06:49 1035 30.56 864 25.51 -3.5 25.8 72 -7.7 18.1 0
06:50 1035 30.56 864 25.51 -3.6 25.6 73 -7.7 18.1 0
06:51 1035 30.56 864 25.51 -3.5 25.6 73 -7.7 18.1 0
06:52 1035 30.56 864 25.51 -3.5 25.6 72 -7.8 18 0
06:53 1035 30.56 864 25.51 -3.5 25.7 72 -7.8 18 0
06:54 1035 30.56 864 25.51 -3.5 25.6 72 -7.9 17.8 0
06:55 1035 30.56 864 25.51 -3.5 25.7 72 -7.9 17.8 0
06:56 1035 30.56 864 25.51 -3.5 25.6 72 -7.9 17.7 0
06:57 1035 30.56 864 25.51 -3.6 25.6 72 -8 17.7 0
06:58 1035 30.56 864 25.51 -3.6 25.6 71 -8.1 17.5 0
06:59 1035 30.56 864 25.51 -3.5 25.7 71 -8 17.6 0
07:00 1035 30.56 864 25.51 -3.5 25.7 71 -8 17.6 0
07:01 1035 30.56 864 25.51 -3.5 25.7 71 -8 17.6 0
07:02 1035 30.56 864 25.51 -3.5 25.6 71 -8.1 17.4 0
07:03 1035 30.56 864 25.51 -3.5 25.8 70 -8.1 17.4 0
07:04 1035 30.56 864 25.51 -3.5 25.8 70 -8.1 17.4 0
07:05 1035 30.56 864 25.51 -3.4 26 70 -8.1 17.5 0
07:06 1035 30.56 864 25.51 -3.3 26 70 -8.1 17.4 0
07:07 1035 30.56 864 25.51 -3.4 25.9 70 -8.1 17.4 0
07:08 1035 30.56 864 25.51 -3.4 25.8 70 -8.2 17.3 0
07:09 1035 30.56 864 25.51 -3.5 25.8 70 -8.2 17.2 0
07:10 1035 30.56 864 25.51 -3.5 25.7 70 -8.2 17.2 0
07:11 1035 30.56 864 25.51 -3.6 25.5 71 -8.2 17.3 0
07:12 1035 30.56 864 25.51 -3.8 25.2 71 -8.2 17.2 0
07:13 1035 30.56 865 25.54 -3.8 25.2 71 -8.3 17.1 0
07:14 1035 30.56 865 25.54 -3.7 25.4 71 -8.3 17.1 0
07:15 1035 30.56 865 25.54 -3.6 25.5 70 -8.3 17.1 0
07:16 1035 30.56 865 25.54 -3.6 25.6 70 -8.2 17.2 0
07:17 1036 30.59 865 25.54 -3.6 25.4 71 -8.2 17.2 0
07:18 1035 30.56 865 25.54 -3.8 25.2 71 -8.2 17.3 0
07:19 1036 30.59 865 25.54 -3.8 25.1 72 -8.2 17.2 0
07:20 1036 30.59 865 25.54 -3.9 24.9 72 -8.3 17.1 0
07:21 1036 30.59 865 25.54 -4 24.8 72 -8.3 17.1 0
07:22 1036 30.59 865 25.54 -4.1 24.7 72 -8.4 17 0
07:23 1036 30.59 865 25.54 -4.1 24.5 73 -8.3 17 0
07:24 1036 30.59 865 25.54 -4.3 24.3 73 -8.4 16.9 0
07:25 1036 30.59 865 25.54 -4.3 24.2 74 -8.4 16.9 0
07:26 1036 30.59 865 25.54 -4.4 24 74 -8.4 16.8 0
07:27 1036 30.59 865 25.54 -4.5 23.9 74 -8.4 16.8 0
07:28 1036 30.59 865 25.54 -4.5 23.9 74 -8.4 16.9 0
07:29 1036 30.59 865 25.54 -4.5 23.8 74 -8.4 16.8 0
07:30 1036 30.59 865 25.54 -4.6 23.7 74 -8.5 16.8 0
07:31 1036 30.59 865 25.54 -4.6 23.6 75 -8.5 16.8 0
07:32 1036 30.59 865 25.54 -4.8 23.4 75 -8.5 16.7 0
07:33 1036 30.59 865 25.54 -4.9 23.2 76 -8.5 16.7 0
07:34 1036 30.59 865 25.54 -5 23 76 -8.6 16.6 0
07:35 1036 30.59 865 25.54 -5 23 76 -8.6 16.6 0
07:36 1036 30.59 865 25.54 -5 23 76 -8.5 16.6 0
07:37 1036 30.59 865 25.54 -5 23 76 -8.6 16.6 0
07:38 1036 30.59 865 25.54 -5 22.9 77 -8.5 16.7 0
07:39 1036 30.59 865 25.54 -5 23 77 -8.5 16.7 0
07:40 1036 30.59 865 25.54 -5 22.9 76 -8.6 16.6 0
07:41 1036 30.59 865 25.54 -5.1 22.9 76 -8.6 16.5 0
07:42 1036 30.59 865 25.54 -5.1 22.9 76 -8.6 16.5 0
07:43 1036 30.59 865 25.54 -5.1 22.9 76 -8.6 16.5 0
07:44 1036 30.59 865 25.54 -5.1 22.9 76 -8.7 16.4 0
07:45 1036 30.59 865 25.54 -5.1 22.8 76 -8.7 16.4 0
07:46 1036 30.59 865 25.54 -5.2 22.7 77 -8.7 16.4 0
07:47 1036 30.59 865 25.54 -5.2 22.7 77 -8.6 16.5 0
07:48 1036 30.59 865 25.54 -5.2 22.7 77 -8.6 16.5 0
07:49 1036 30.59 865 25.54 -5.2 22.7 77 -8.7 16.4 0
07:50 1036 30.59 865 25.54 -5.1 22.9 76 -8.7 16.4 0
07:51 1036 30.59 865 25.54 -5 23 76 -8.7 16.4 0
07:52 1036 30.59 865 25.54 -5.1 22.9 76 -8.7 16.3 0
07:53 1036 30.59 865 25.54 -5.1 22.8 76 -8.7 16.3 0
07:54 1036 30.59 865 25.54 -5.2 22.7 76 -8.8 16.2 0
07:55 1036 30.59 865 25.54 -5.2 22.6 76 -8.7 16.3 0
07:56 1036 30.59 865 25.54 -5.2 22.6 76 -8.7 16.3 0
07:57 1036 30.59 865 25.54 -5.2 22.7 77 -8.6 16.5 0
07:58 1036 30.59 866 25.57 -5 22.9 76 -8.6 16.5 0
07:59 1036 30.59 866 25.57 -4.9 23.2 75 -8.6 16.5 0
08:00 1036 30.59 866 25.57 -4.7 23.5 75 -8.6 16.6 0
08:01 1036 30.59 866 25.57 -4.7 23.5 74 -8.6 16.5 0
08:02 1036 30.59 866 25.57 -4.7 23.5 74 -8.6 16.5 0
08:03 1036 30.59 866 25.57 -4.8 23.4 75 -8.6 16.5 0
08:04 1036 30.59 866 25.57 -4.8 23.3 74 -8.7 16.4 0
08:05 1036 30.59 866 25.57 -4.8 23.4 74 -8.7 16.4 0
08:06 1037 30.62 866 25.57 -4.7 23.5 73 -8.8 16.2 0
08:07 1037 30.62 866 25.57 -4.5 23.8 73 -8.7 16.3 0
08:08 1037 30.62 866 25.57 -4.4 24.1 72 -8.7 16.4 0
08:09 1037 30.62 866 25.57 -4.4 24.1 72 -8.6 16.4 0
08:10 1037 30.62 866 25.57 -4.4 24 72 -8.7 16.4 0
08:11 1037 30.62 866 25.57 -4.4 24.1 72 -8.7 16.3 0
08:12 1037 30.62 866 25.57 -4.4 24 72 -8.8 16.2 0
08:13 1037 30.62 866 25.57 -4.5 24 72 -8.8 16.2 0
08:14 1037 30.62 866 25.57 -4.5 23.9 71 -9 15.8 0
08:15 1037 30.62 866 25.57 -4.4 24 71 -9 15.8 0
08:16 1037 30.62 866 25.57 -4.4 24.1 71 -9 15.9 0
08:17 1037 30.62 866 25.57 -4.3 24.2 70 -9 15.9 0
08:18 1037 30.62 866 25.57 -4.3 24.2 71 -8.9 16 0
08:19 1037 30.62 866 25.57 -4.3 24.3 70 -8.9 15.9 0
08:20 1037 30.62 866 25.57 -4.3 24.2 70 -8.9 15.9 0
08:21 1037 30.62 866 25.57 -4.3 24.3 69 -9.1 15.6 0
08:22 1037 30.62 866 25.57 -4.2 24.5 69 -9.1 15.6 0
08:23 1037 30.62 866 25.57 -4.1 24.6 68 -9.1 15.6 0
08:24 1037 30.62 866 25.57 -4.1 24.6 68 -9.1 15.7 0
08:25 1037 30.62 866 25.57 -4 24.7 68 -9 15.7 0
08:26 1037 30.62 866 25.57 -4 24.8 68 -9 15.7 0
08:27 1037 30.62 866 25.57 -3.9 24.9 68 -8.9 16 0
08:28 1037 30.62 866 25.57 -3.9 24.9 69 -8.9 16.1 0
08:29 1037 30.62 866 25.57 -3.9 25 68 -8.9 16 0
08:30 1037 30.62 866 25.57 -3.9 25 68 -8.9 15.9 0
08:31 1037 30.62 866 25.57 -3.8 25.1 68 -8.9 15.9 0
08:32 1037 30.62 866 25.57 -3.8 25.2 67 -9 15.8 0
08:33 1037 30.62 866 25.57 -3.7 25.3 65 -9.3 15.2 0
08:34 1037 30.62 866 25.57 -3.6 25.6 65 -9.2 15.5 0
08:35 1037 30.62 866 25.57 -3.4 25.8 64 -9.3 15.2 0
08:36 1037 30.62 866 25.57 -3.3 26 63 -9.3 15.3 0
08:37 1037 30.62 866 25.57 -3.3 26.1 62 -9.5 14.9 0
08:38 1037 30.62 866 25.57 -3.2 26.3 62 -9.3 15.2 0
08:39 1037 30.62 866 25.57 -3.1 26.5 61 -9.5 14.9 0
08:40 1037 30.62 866 25.57 -3 26.5 62 -9.3 15.3 0
08:41 1037 30.62 866 25.57 -3 26.6 63 -9.1 15.7 0
08:42 1037 30.62 866 25.57 -3 26.6 62 -9.3 15.2 0
08:43 1037 30.62 866 25.57 -3 26.6 61 -9.4 15.1 0
08:44 1037 30.62 866 25.57 -2.9 26.7 61 -9.4 15 0
08:45 1037 30.62 866 25.57 -2.9 26.9 60 -9.5 14.9 0
08:46 1037 30.62 866 25.57 -2.8 26.9 62 -9.1 15.6 0
08:47 1037 30.62 866 25.57 -2.8 27 59 -9.6 14.6 0
08:48 1037 30.62 867 25.6 -2.7 27.1 61 -9.2 15.4 0
08:49 1037 30.62 867 25.6 -2.7 27.1 61 -9.2 15.4 0
08:50 1037 30.62 867 25.6 -2.7 27.2 61 -9.2 15.4 0
08:51 1037 30.62 867 25.6 -2.6 27.3 61 -9.2 15.4 0
08:52 1038 30.65 867 25.6 -2.6 27.4 59 -9.4 15 0
08:53 1038 30.65 867 25.6 -2.5 27.5 61 -9 15.8 0
08:54 1038 30.65 867 25.6 -2.4 27.6 60 -9.1 15.6 0
08:55 1038 30.65 867 25.6 -2.4 27.7 60 -9.2 15.4 0
08:56 1038 30.65 867 25.6 -2.4 27.8 59 -9.3 15.3 0
08:57 1038 30.65 867 25.6 -2.3 27.8 59 -9.2 15.5 0
08:58 1038 30.65 867 25.6 -2.2 28 59 -9.2 15.5 0
08:59 1038 30.65 867 25.6 -2.2 28 59 -9.2 15.5 0
09:00 1038 30.65 867 25.6 -2.2 28.1 59 -9.1 15.7 0
09:01 1038 30.65 867 25.6 -2.2 28.1 59 -9.2 15.5 0
09:02 1038 30.65 867 25.6 -2.1 28.2 58 -9.3 15.2 0
09:03 1038 30.65 867 25.6 -2.1 28.2 58 -9.4 15.1 0
09:04 1038 30.65 867 25.6 -2.1 28.3 58 -9.4 15.2 0
09:05 1038 30.65 867 25.6 -2.1 28.3 57 -9.5 14.9 0
09:06 1038 30.65 867 25.6 -2 28.4 57 -9.4 15.1 0
09:07 1038 30.65 867 25.6 -2 28.4 56 -9.6 14.7 0
09:08 1038 30.65 867 25.6 -2 28.5 57 -9.3 15.2 0
09:09 1038 30.65 867 25.6 -1.9 28.5 55 -9.7 14.5 0
09:10 1038 30.65 867 25.6 -1.9 28.6 57 -9.4 15.1 0
09:11 1038 30.65 867 25.6 -1.8 28.8 54 -9.8 14.3 0
09:12 1038 30.65 867 25.6 -1.7 28.9 54 -10 14 0
09:13 1038 30.65 867 25.6 -1.7 28.9 54 -9.9 14.1 0
09:14 1038 30.65 867 25.6 -1.7 29 54 -9.8 14.4 0
09:15 1038 30.65 867 25.6 -1.7 29 54 -9.8 14.4 0
09:16 1038 30.65 867 25.6 -1.6 29.1 54 -9.7 14.5 0
09:17 1038 30.65 867 25.6 -1.6 29.1 52 -10.2 13.6 0
09:18 1038 30.65 867 25.6 -1.5 29.3 53 -9.8 14.3 0
09:19 1038 30.65 867 25.6 -1.5 29.3 52 -10.2 13.7 0
09:20 1038 30.65 867 25.6 -1.5 29.4 54 -9.6 14.8 0
09:21 1038 30.65 867 25.6 -1.4 29.5 53 -9.7 14.5 0
09:22 1038 30.65 867 25.6 -1.4 29.5 54 -9.5 14.9 0
09:23 1038 30.65 867 25.6 -1.3 29.6 53 -9.8 14.4 0
09:24 1038 30.65 867 25.6 -1.2 29.8 51 -10.2 13.7 0
09:25 1038 30.65 867 25.6 -1.2 29.8 51 -10.1 13.9 0
09:26 1038 30.65 867 25.6 -1.2 29.8 52 -9.9 14.2 0
09:27 1038 30.65 867 25.6 -1.2 29.9 51 -10.1 13.7 0
09:28 1038 30.65 867 25.6 -1.1 30 50 -10.2 13.6 0
09:29 1038 30.65 867 25.6 -1.1 30.1 51 -10.1 13.8 0
09:30 1038 30.65 867 25.6 -1 30.2 50 -10.3 13.5 0
09:31 1038 30.65 867 25.6 -1 30.2 51 -9.9 14.2 0
09:32 1038 30.65 867 25.6 -1 30.3 52 -9.6 14.7 0
09:33 1038 30.65 867 25.6 -0.9 30.4 53 -9.4 15.1 0
09:34 1038 30.65 867 25.6 -0.8 30.5 51 -9.8 14.3 0
09:35 1038 30.65 867 25.6 -0.8 30.5 50 -9.9 14.1 0
09:36 1038 30.65 867 25.6 -0.8 30.6 50 -10.1 13.8 0
09:37 1038 30.65 867 25.6 -0.8 30.6 50 -10 14.1 0
09:38 1038 30.65 867 25.6 -0.7 30.7 52 -9.5 14.9 0
09:39 1038 30.65 867 25.6 -0.7 30.8 52 -9.4 15 0
09:40 1038 30.65 867 25.6 -0.5 31.1 51 -9.5 14.9 0
09:41 1038 30.65 867 25.6 -0.4 31.3 50 -9.6 14.7 0
09:42 1038 30.65 867 25.6 -0.4 31.2 51 -9.5 15 0
09:43 1038 30.65 867 25.6 -0.4 31.3 49 -10 14.1 0
09:44 1038 30.65 867 25.6 -0.4 31.3 49 -9.9 14.1 0
09:45 1038 30.65 867 25.6 -0.4 31.2 49 -9.8 14.3 0
09:46 1038 30.65 867 25.6 -0.4 31.3 49 -9.7 14.5 0
09:47 1038 30.65 867 25.6 -0.4 31.3 48 -10.1 13.8 0
09:48 1038 30.65 867 25.6 -0.3 31.5 49 -9.7 14.5 0
09:49 1038 30.65 867 25.6 -0.2 31.7 49 -9.6 14.7 0
09:50 1038 30.65 867 25.6 -0.2 31.7 48 -9.8 14.4 0
09:51 1038 30.65 867 25.6 -0.1 31.8 49 -9.7 14.6 0
09:52 1038 30.65 867 25.6 -0.1 31.9 47 -10 14 0
09:53 1038 30.65 867 25.6 -0 31.9 47 -10.1 13.8 0
09:54 1038 30.65 867 25.6 0 32 49 -9.6 14.8 0
09:55 1038 30.65 867 25.6 0.1 32.2 46 -10.2 13.7 0
09:56 1038 30.65 867 25.6 0.2 32.4 47 -9.8 14.3 0
09:57 1038 30.65 867 25.6 0.2 32.4 50 -9 15.7 0
09:58 1038 30.65 867 25.6 0.4 32.8 47 -9.7 14.6 0
09:59 1038 30.65 867 25.6 0.6 33 45 -10.1 13.9 0
10:00 1038 30.65 867 25.6 0.4 32.8 46 -9.9 14.2 0
10:01 1038 30.65 867 25.6 0.4 32.7 48 -9.5 14.9 0
10:02 1038 30.65 868 25.63 0.4 32.8 47 -9.6 14.7 0
10:03 1038 30.65 868 25.63 0.4 32.7 49 -9.3 15.3 0
10:04 1038 30.65 868 25.63 0.5 32.8 44 -10.4 13.2 0
10:05 1038 30.65 868 25.63 0.4 32.8 46 -9.8 14.3 0
10:06 1038 30.65 868 25.63 0.4 32.8 45 -10.1 13.7 0
10:07 1038 30.65 868 25.63 0.4 32.8 45 -10.2 13.7 0
10:08 1038 30.65 868 25.63 0.4 32.8 45 -10.1 13.9 0
10:09 1038 30.65 868 25.63 0.4 32.7 46 -9.8 14.4 0
10:10 1038 30.65 868 25.63 0.5 32.8 45 -10.1 13.9 0
10:11 1038 30.65 868 25.63 0.5 32.8 46 -9.8 14.4 0
10:12 1038 30.65 868 25.63 0.4 32.8 46 -9.8 14.3 0
10:13 1038 30.65 868 25.63 0.4 32.7 48 -9.4 15.1 0
10:14 1038 30.65 868 25.63 0.5 32.9 46 -9.7 14.5 0
10:15 1038 30.65 868 25.63 0.5 32.9 47 -9.6 14.7 0
10:16 1038 30.65 868 25.63 0.6 33 46 -9.8 14.3 0
10:17 1038 30.65 868 25.63 0.7 33.3 46 -9.7 14.5 0
10:18 1038 30.65 868 25.63 0.9 33.6 44 -10.1 13.9 0
10:19 1038 30.65 867 25.6 0.9 33.7 45 -9.6 14.7 0
10:20 1038 30.65 867 25.6 0.9 33.6 45 -9.8 14.3 0
10:21 1038 30.65 868 25.63 0.9 33.7 45 -9.6 14.7 0
10:22 1038 30.65 868 25.63 1 33.7 46 -9.5 14.9 0
10:23 1038 30.65 868 25.63 1 33.9 46 -9.4 15 0
10:24 1038 30.65 867 25.6 1.2 34.1 50 -8.1 17.5 0
10:25 1038 30.65 868 25.63 1.1 34 51 -7.9 17.8 0
10:26 1038 30.65 868 25.63 1.1 34 52 -7.7 18.1 0
10:27 1038 30.65 868 25.63 1.2 34.2 50 -8 17.6 0
10:28 1038 30.65 868 25.63 1.1 34.1 48 -8.6 16.4 0
10:29 1038 30.65 868 25.63 1 33.8 48 -8.7 16.3 0
10:30 1038 30.65 868 25.63 0.9 33.7 51 -8.2 17.2 0
10:31 1038 30.65 868 25.63 1 33.7 50 -8.3 17.1 0
10:32 1038 30.65 868 25.63 1 33.8 50 -8.4 16.9 0
10:33 1038 30.65 868 25.63 0.9 33.7 52 -7.9 17.7 0
10:34 1038 30.65 868 25.63 1 33.7 50 -8.3 17.1 0
10:35 1038 30.65 868 25.63 0.9 33.6 52 -7.9 17.8 0
10:36 1038 30.65 868 25.63 0.8 33.5 51 -8.2 17.2 0
10:37 1038 30.65 868 25.63 0.8 33.4 52 -7.9 17.7 0
10:38 1038 30.65 868 25.63 0.8 33.5 53 -7.7 18.1 0
10:39 1038 30.65 868 25.63 0.8 33.5 52 -8.1 17.5 0
10:40 1038 30.65 868 25.63 0.9 33.6 52 -7.9 17.9 0
10:41 1038 30.65 868 25.63 0.9 33.6 50 -8.2 17.2 0
10:42 1038 30.65 868 25.63 1 33.8 51 -8 17.5 0
10:43 1038 30.65 868 25.63 1.2 34.2 50 -8.2 17.3 0
10:44 1038 30.65 868 25.63 1.1 33.9 52 -7.7 18.1 0
10:45 1038 30.65 868 25.63 1.1 34 51 -8 17.5 0
10:46 1038 30.65 868 25.63 1.2 34.2 48 -8.7 16.4 0
10:47 1038 30.65 868 25.63 1.2 34.2 47 -9 15.8 0
10:48 1038 30.65 868 25.63 1.3 34.3 50 -8.1 17.5 0
10:49 1038 30.65 868 25.63 1.5 34.6 48 -8.3 17 0
10:50 1038 30.65 868 25.63 1.6 34.9 47 -8.6 16.5 0
10:51 1038 30.65 868 25.63 1.8 35.2 46 -8.7 16.3 0
10:52 1038 30.65 868 25.63 1.9 35.5 48 -8 17.7 0
10:53 1038 30.65 868 25.63 2.2 35.9 46 -8.2 17.2 0
10:54 1038 30.65 868 25.63 2.3 36.2 47 -7.8 17.9 0
10:55 1038 30.65 868 25.63 2.4 36.3 47 -7.9 17.8 0
10:56 1038 30.65 868 25.63 2.5 36.5 43 -8.7 16.3 0
10:57 1038 30.65 868 25.63 2.4 36.4 46 -7.9 17.7 0
10:58 1038 30.65 868 25.63 2.4 36.3 46 -8.1 17.4 0
10:59 1038 30.65 868 25.63 2.5 36.4 46 -8.1 17.4 0
11:00 1038 30.65 868 25.63 2.5 36.4 45 -8.2 17.2 0
11:01 1038 30.65 868 25.63 2.2 36 46 -8.3 17.1 0
11:02 1038 30.65 868 25.63 2 35.5 48 -8 17.5 0
11:03 1038 30.65 868 25.63 1.9 35.4 46 -8.5 16.6 0
11:04 1038 30.65 868 25.63 1.7 35 49 -7.9 17.8 0
11:05 1038 30.65 868 25.63 1.7 35 47 -8.4 16.9 0
11:06 1038 30.65 868 25.63 1.6 35 47 -8.6 16.5 0
11:07 1038 30.65 868 25.63 1.6 34.9 48 -8.4 16.9 0
11:08 1038 30.65 868 25.63 1.6 34.9 49 -8 17.5 0
11:09 1038 30.65 868 25.63 1.7 35 48 -8.2 17.2 0
11:10 1038 30.65 868 25.63 1.9 35.4 48 -8 17.6 0
11:11 1038 30.65 868 25.63 2.1 35.8 46 -8.4 16.9 0
11:12 1038 30.65 868 25.63 2 35.7 49 -7.5 18.5 0
11:13 1038 30.65 868 25.63 2.1 35.8 49 -7.6 18.3 0
11:14 1038 30.65 868 25.63 2.1 35.7 46 -8.4 16.9 0
11:15 1038 30.65 868 25.63 2.1 35.8 46 -8.2 17.2 0
11:16 1039 30.68 868 25.63 2.2 36 48 -7.7 18.1 0
11:17 1039 30.68 868 25.63 2.4 36.3 44 -8.6 16.5 0
11:18 1038 30.65 868 25.63 2.4 36.4 44 -8.7 16.3 0
11:19 1039 30.68 868 25.63 2.4 36.4 45 -8.3 17.1 0
11:20 1038 30.65 868 25.63 2.5 36.5 44 -8.6 16.5 0
11:21 1038 30.65 868 25.63 2.4 36.4 45 -8.4 17 0
11:22 1039 30.68 868 25.63 2.5 36.6 42 -9 15.7 0
11:23 1038 30.65 868 25.63 2.5 36.5 43 -8.9 15.9 0
11:24 1038 30.65 868 25.63 2.4 36.2 43 -9.1 15.7 0
11:25 1038 30.65 868 25.63 2.3 36.1 43 -9.2 15.4 0
11:26 1038 30.65 868 25.63 2.2 36 43 -9.1 15.6 0
11:27 1038 30.65 868 25.63 2.4 36.2 44 -8.8 16.1 0
11:28 1038 30.65 868 25.63 2.5 36.5 42 -9.2 15.4 0
11:29 1038 30.65 868 25.63 2.6 36.6 43 -8.8 16.2 0
11:30 1038 30.65 868 25.63 2.5 36.5 43 -8.9 16 0
11:31 1038 30.65 868 25.63 2.4 36.3 43 -8.8 16.2 0
11:32 1038 30.65 868 25.63 2.5 36.5 42 -9.1 15.6 0
11:33 1038 30.65 868 25.63 2.5 36.5 42 -9.2 15.5 0
11:34 1038 30.65 868 25.63 2.4 36.2 45 -8.4 16.9 0
11:35 1038 30.65 868 25.63 2.4 36.3 44 -8.7 16.3 0
11:36 1038 30.65 868 25.63 2.5 36.5 43 -8.8 16.1 0
11:37 1038 30.65 868 25.63 2.7 36.8 43 -8.8 16.2 0
11:38 1038 30.65 868 25.63 2.7 36.9 42 -9 15.8 0
11:39 1038 30.65 868 25.63 2.7 36.9 42 -8.8 16.1 0
11:40 1038 30.65 868 25.63 2.8 37 41 -9.1 15.6 0
11:41 1038 30.65 868 25.63 2.9 37.1 43 -8.6 16.5 0
11:42 1038 30.65 868 25.63 3.1 37.5 44 -8.1 17.4 0
11:43 1038 30.65 868 25.63 3.3 37.9 41 -8.6 16.4 0
11:44 1038 30.65 868 25.63 3.3 38 41 -8.7 16.3 0
11:45 1038 30.65 867 25.6 3.1 37.6 43 -8.5 16.8 0
11:46 1038 30.65 867 25.6 3 37.4 42 -8.8 16.2 0
11:47 1038 30.65 867 25.6 2.9 37.2 42 -8.8 16.2 0
11:48 1038 30.65 867 25.6 2.7 36.9 42 -8.8 16.1 0
11:49 1038 30.65 868 25.63 2.7 36.9 42 -8.9 16 0
11:50 1038 30.65 868 25.63 2.7 36.9 43 -8.5 16.7 0
11:51 1038 30.65 868 25.63 2.7 36.9 43 -8.7 16.4 0
11:52 1038 30.65 868 25.63 2.9 37.1 45 -7.9 17.8 0
11:53 1038 30.65 868 25.63 2.9 37.3 42 -8.6 16.5 0
11:54 1038 30.65 868 25.63 2.7 36.9 44 -8.3 17.1 0
11:55 1038 30.65 868 25.63 2.7 36.8 43 -8.6 16.4 0
11:56 1038 30.65 868 25.63 2.7 36.8 45 -8 17.6 0
11:57 1038 30.65 867 25.6 2.8 37 43 -8.5 16.7 0
11:58 1038 30.65 868 25.63 2.9 37.2 43 -8.4 16.9 0
11:59 1038 30.65 868 25.63 2.9 37.3 44 -8.2 17.2 0
12:00 1038 30.65 868 25.63 3 37.4 44 -8.2 17.2 0
12:01 1038 30.65 868 25.63 3.1 37.7 45 -7.7 18.2 0
12:02 1038 30.65 868 25.63 3.2 37.8 43 -8.2 17.3 0
12:03 1038 30.65 868 25.63 3.3 37.9 42 -8.3 17.1 0
12:04 1038 30.65 867 25.6 3.2 37.8 42 -8.5 16.6 0
12:05 1038 30.65 867 25.6 3.2 37.7 41 -8.9 16 0
12:06 1038 30.65 867 25.6 3.2 37.7 44 -8.1 17.5 0
12:07 1038 30.65 867 25.6 3.3 37.9 44 -7.9 17.7 0
12:08 1038 30.65 867 25.6 3.4 38 40 -8.9 15.9 0
12:09 1038 30.65 867 25.6 3.4 38.1 41 -8.7 16.3 0
12:10 1038 30.65 867 25.6 3.3 38 41 -8.6 16.5 0
12:11 1038 30.65 867 25.6 3.3 38 39 -9.3 15.2 0
12:12 1038 30.65 867 25.6 3.3 38 41 -8.7 16.4 0
12:13 1038 30.65 867 25.6 3.3 37.9 41 -8.8 16.2 0
12:14 1038 30.65 867 25.6 3.3 37.9 42 -8.5 16.7 0
12:15 1038 30.65 867 25.6 3.3 37.9 42 -8.3 17 0
12:16 1038 30.65 867 25.6 3.2 37.8 40 -9 15.7 0
12:17 1038 30.65 867 25.6 3.3 37.9 42 -8.5 16.8 0
12:18 1038 30.65 867 25.6 3.3 37.9 42 -8.6 16.6 0
12:19 1038 30.65 867 25.6 3.2 37.7 41 -8.8 16.2 0
12:20 1038 30.65 867 25.6 3.1 37.6 41 -9 15.8 0
12:21 1038 30.65 867 25.6 3.2 37.7 39 -9.4 15.1 0
12:22 1038 30.65 867 25.6 3 37.4 42 -8.7 16.3 0
12:23 1038 30.65 867 25.6 3 37.4 43 -8.4 16.9 0
12:24 1038 30.65 867 25.6 3.1 37.5 43 -8.5 16.7 0
12:25 1038 30.65 867 25.6 3 37.4 40 -9.3 15.3 0
12:26 1038 30.65 867 25.6 3 37.5 40 -9.2 15.4 0
12:27 1038 30.65 867 25.6 3 37.4 39 -9.6 14.6 0
12:28 1038 30.65 867 25.6 3.1 37.6 41 -8.8 16.1 0
12:29 1038 30.65 867 25.6 3.3 37.9 39 -9.4 15 0
12:30 1038 30.65 867 25.6 3.5 38.3 39 -9.1 15.5 0
12:31 1038 30.65 867 25.6 3.6 38.4 39 -9.1 15.6 0
12:32 1038 30.65 867 25.6 3.5 38.3 40 -8.8 16.1 0
12:33 1038 30.65 867 25.6 3.5 38.2 38 -9.6 14.8 0
12:34 1038 30.65 867 25.6 3.6 38.4 38 -9.3 15.2 0
12:35 1038 30.65 867 25.6 3.7 38.6 39 -9.2 15.5 0
12:36 1038 30.65 867 25.6 3.9 39 37 -9.7 14.6 0
12:37 1038 30.65 867 25.6 4 39.3 39 -8.7 16.3 0
12:38 1038 30.65 867 25.6 4.2 39.5 38 -8.9 16 0
12:39 1038 30.65 867 25.6 4.1 39.4 38 -9.1 15.7 0
12:40 1038 30.65 867 25.6 4 39.2 38 -9 15.7 0
12:41 1038 30.65 867 25.6 3.9 39.1 39 -9 15.9 0
12:42 1038 30.65 867 25.6 3.9 39 41 -8.3 17 0
12:43 1038 30.65 867 25.6 3.8 38.9 39 -8.8 16.2 0
12:44 1038 30.65 867 25.6 3.8 38.8 41 -8.4 16.9 0
12:45 1038 30.65 867 25.6 3.7 38.7 39 -9.1 15.6 0
12:46 1038 30.65 867 25.6 3.5 38.4 39 -9.1 15.7 0
12:47 1038 30.65 867 25.6 3.4 38.2 39 -9.1 15.5 0
12:48 1038 30.65 867 25.6 3.4 38.1 39 -9.4 15 0
12:49 1038 30.65 867 25.6 3.4 38.2 40 -9 15.8 0
12:50 1038 30.65 867 25.6 3.7 38.7 39 -9.1 15.7 0
12:51 1038 30.65 867 25.6 3.9 39 40 -8.7 16.4 0
12:52 1038 30.65 867 25.6 4.1 39.3 38 -9.1 15.6 0
12:53 1038 30.65 867 25.6 4 39.1 41 -8.2 17.2 0
12:54 1038 30.65 867 25.6 3.9 39.1 38 -9.2 15.5 0
12:55 1038 30.65 867 25.6 3.9 39 37 -9.4 15.1 0
12:56 1038 30.65 867 25.6 3.8 38.9 38 -9.2 15.4 0
12:57 1038 30.65 867 25.6 3.8 38.9 39 -8.9 16 0
12:58 1038 30.65 867 25.6 3.8 38.8 41 -8.3 17 0
12:59 1038 30.65 867 25.6 3.8 38.8 41 -8.4 16.8 0
13:00 1038 30.65 867 25.6 3.7 38.7 40 -8.6 16.5 0
13:01 1038 30.65 867 25.6 3.7 38.7 38 -9.3 15.3 0
13:02 1038 30.65 867 25.6 3.7 38.7 39 -9 15.8 0
13:03 1038 30.65 867 25.6 3.8 38.8 40 -8.7 16.3 0
13:04 1038 30.65 867 25.6 3.9 39 41 -8.3 17.1 0
13:05 1038 30.65 867 25.6 4.1 39.3 40 -8.4 16.9 0
13:06 1038 30.65 867 25.6 4.1 39.3 38 -9 15.8 0
13:07 1037 30.62 867 25.6 3.9 39.1 41 -8.1 17.5 0
13:08 1038 30.65 867 25.6 4 39.2 38 -9.1 15.6 0
13:09 1037 30.62 867 25.6 4 39.2 38 -9 15.8 0
13:10 1037 30.62 867 25.6 3.9 39.1 40 -8.5 16.8 0
13:11 1037 30.62 867 25.6 4 39.2 39 -8.8 16.1 0
13:12 1037 30.62 867 25.6 4 39.2 40 -8.3 17 0
13:13 1037 30.62 867 25.6 4.1 39.4 41 -8 17.7 0
13:14 1037 30.62 867 25.6 4.3 39.7 41 -7.8 18 0
13:15 1037 30.62 867 25.6 4.2 39.6 39 -8.4 16.9 0
13:16 1037 30.62 867 25.6 4.3 39.7 41 -7.9 17.7 0
13:17 1037 30.62 867 25.6 4.3 39.7 39 -8.3 17 0
13:18 1037 30.62 867 25.6 4.3 39.7 40 -8.1 17.4 0
13:19 1037 30.62 866 25.57 4.3 39.7 41 -8 17.7 0
13:20 1037 30.62 866 25.57 4.3 39.7 41 -7.9 17.8 0
13:21 1037 30.62 866 25.57 4.3 39.7 40 -8.1 17.4 0
13:22 1037 30.62 866 25.57 4.3 39.8 41 -7.9 17.9 0
13:23 1037 30.62 866 25.57 4.3 39.8 39 -8.4 17 0
13:24 1037 30.62 866 25.57 4.2 39.5 40 -8.4 17 0
13:25 1037 30.62 866 25.57 4.1 39.3 40 -8.5 16.7 0
13:26 1037 30.62 866 25.57 3.9 39.1 41 -8.2 17.3 0
13:27 1037 30.62 866 25.57 3.9 39.1 41 -8 17.6 0
13:28 1037 30.62 866 25.57 4.1 39.3 39 -8.6 16.6 0
13:29 1037 30.62 866 25.57 4 39.3 41 -8 17.6 0
13:30 1037 30.62 866 25.57 4.1 39.4 41 -8.1 17.5 0
13:31 1037 30.62 866 25.57 4.1 39.5 40 -8.3 17 0
13:32 1037 30.62 866 25.57 4 39.3 43 -7.4 18.6 0
13:33 1037 30.62 866 25.57 4.2 39.5 41 -8 17.6 0
13:34 1037 30.62 866 25.57 4.4 39.9 39 -8.2 17.2 0
13:35 1037 30.62 866 25.57 4.4 39.9 40 -8.1 17.5 0
13:36 1037 30.62 866 25.57 4.4 39.9 39 -8.3 17 0
13:37 1037 30.62 866 25.57 4.4 39.9 38 -8.6 16.5 0
13:38 1037 30.62 866 25.57 4.4 39.9 40 -8 17.6 0
13:39 1037 30.62 866 25.57 4.6 40.3 40 -8 17.6 0
13:40 1037 30.62 866 25.57 4.7 40.5 39 -8 17.5 0
13:41 1037 30.62 866 25.57 4.8 40.6 39 -8 17.6 0
13:42 1037 30.62 866 25.57 4.8 40.7 42 -7 19.4 0
13:43 1037 30.62 866 25.57 4.9 40.9 40 -7.6 18.3 0
13:44 1037 30.62 866 25.57 5 40.9 41 -7.2 19 0
13:45 1037 30.62 866 25.57 4.8 40.6 41 -7.2 19 0
13:46 1037 30.62 866 25.57 4.7 40.5 40 -7.6 18.3 0
13:47 1037 30.62 866 25.57 4.7 40.5 38 -8.5 16.7 0
13:48 1037 30.62 866 25.57 4.5 40.1 40 -8 17.7 0
13:49 1037 30.62 866 25.57 4.5 40.1 39 -8.2 17.3 0
13:50 1037 30.62 866 25.57 4.5 40 39 -8.2 17.2 0
13:51 1037 30.62 866 25.57 4.4 39.9 40 -8.1 17.4 0
13:52 1037 30.62 866 25.57 4.4 40 40 -8 17.6 0
13:53 1037 30.62 866 25.57 4.7 40.4 38 -8.6 16.5 0
13:54 1037 30.62 866 25.57 4.8 40.6 38 -8.3 17.1 0
13:55 1037 30.62 866 25.57 4.9 40.8 40 -7.7 18.2 0
13:56 1037 30.62 866 25.57 5 41.1 39 -7.8 18 0
13:57 1037 30.62 866 25.57 5 41.1 38 -8.2 17.3 0
13:58 1037 30.62 866 25.57 5 40.9 38 -8.1 17.5 0
13:59 1037 30.62 866 25.57 4.9 40.9 38 -8.2 17.3 0
14:00 1037 30.62 866 25.57 5 41 39 -7.7 18.2 0
14:01 1037 30.62 866 25.57 5 41 38 -8.1 17.3 0
14:02 1037 30.62 866 25.57 5 41 41 -7.3 18.9 0
14:03 1037 30.62 866 25.57 5 41.1 40 -7.5 18.4 0
14:04 1037 30.62 866 25.57 4.9 40.8 39 -8 17.6 0
14:05 1037 30.62 866 25.57 4.7 40.5 39 -8 17.7 0
14:06 1037 30.62 866 25.57 4.6 40.3 39 -8 17.5 0
14:07 1037 30.62 866 25.57 4.6 40.3 40 -7.9 17.8 0
14:08 1037 30.62 866 25.57 4.7 40.5 39 -7.9 17.7 0
14:09 1037 30.62 866 25.57 5 40.9 38 -8.3 17 0
14:10 1037 30.62 866 25.57 4.9 40.9 38 -8.3 17.1 0
14:11 1037 30.62 866 25.57 4.9 40.8 38 -8.2 17.3 0
14:12 1037 30.62 866 25.57 5 40.9 39 -7.8 17.9 0
14:13 1037 30.62 866 25.57 5 41 39 -7.9 17.8 0
14:14 1037 30.62 866 25.57 5.1 41.2 39 -7.6 18.4 0
14:15 1037 30.62 866 25.57 5.3 41.6 37 -8.2 17.2 0
14:16 1037 30.62 866 25.57 5.4 41.6 38 -8 17.6 0
14:17 1037 30.62 866 25.57 5.3 41.6 38 -8 17.6 0
14:18 1037 30.62 866 25.57 5.3 41.6 39 -7.6 18.2 0
14:19 1037 30.62 866 25.57 5.5 41.9 40 -6.9 19.6 0
14:20 1037 30.62 866 25.57 5.6 42.1 39 -7.3 18.9 0
14:21 1037 30.62 866 25.57 5.4 41.7 37 -8 17.5 0
14:22 1037 30.62 866 25.57 5.2 41.4 38 -8 17.6 0
14:23 1037 30.62 866 25.57 5.1 41.2 39 -7.6 18.4 0
14:24 1037 30.62 866 25.57 5.1 41.2 38 -8.2 17.3 0
14:25 1037 30.62 866 25.57 5.1 41.2 38 -7.9 17.7 0
14:26 1037 30.62 866 25.57 5.1 41.3 39 -7.8 18 0
14:27 1037 30.62 866 25.57 5.1 41.2 37 -8.2 17.2 0
14:28 1037 30.62 866 25.57 5.3 41.5 38 -8 17.5 0
14:29 1037 30.62 866 25.57 5.5 41.9 37 -8 17.5 0
14:30 1037 30.62 866 25.57 5.7 42.2 37 -7.7 18.1 0
14:31 1037 30.62 866 25.57 5.9 42.6 37 -7.9 17.9 0
14:32 1036 30.59 866 25.57 5.9 42.6 36 -8.1 17.4 0
14:33 1036 30.59 866 25.57 5.7 42.3 36 -8.3 17.1 0
14:34 1036 30.59 866 25.57 5.6 42 37 -8 17.6 0
14:35 1036 30.59 866 25.57 5.5 41.9 36 -8.3 17 0
14:36 1036 30.59 866 25.57 5.5 41.9 38 -7.7 18.1 0
14:37 1036 30.59 866 25.57 5.7 42.3 38 -7.6 18.3 0
14:38 1036 30.59 866 25.57 5.9 42.7 36 -7.9 17.8 0
14:39 1036 30.59 866 25.57 6.2 43.1 35 -8 17.6 0
14:40 1036 30.59 866 25.57 6.2 43.2 36 -7.6 18.3 0
14:41 1036 30.59 866 25.57 6.2 43.1 36 -8 17.6 0
14:42 1036 30.59 866 25.57 6.1 43.1 37 -7.4 18.7 0
14:43 1036 30.59 866 25.57 6.2 43.2 35 -8.3 17.1 0
14:44 1036 30.59 866 25.57 6.3 43.3 38 -7.2 19.1 0
14:45 1036 30.59 866 25.57 6.4 43.6 35 -8 17.6 0
14:46 1036 30.59 866 25.57 6.4 43.5 37 -7.3 18.8 0
14:47 1036 30.59 866 25.57 6.4 43.6 36 -7.5 18.5 0
14:48 1036 30.59 866 25.57 6.4 43.6 37 -7.1 19.3 0
14:49 1036 30.59 865 25.54 6.3 43.4 35 -8.1 17.3 0
14:50 1036 30.59 866 25.57 6.3 43.3 35 -7.9 17.8 0
14:51 1036 30.59 866 25.57 6.3 43.3 38 -7 19.3 0
14:52 1036 30.59 865 25.54 6.2 43.1 36 -7.8 17.9 0
14:53 1036 30.59 865 25.54 6.2 43.1 36 -7.9 17.9 0
14:54 1036 30.59 865 25.54 6.1 43 38 -7.3 18.9 0
14:55 1036 30.59 865 25.54 6.1 43 35 -8.1 17.4 0
14:56 1036 30.59 865 25.54 6.2 43.2 38 -7.1 19.2 0
14:57 1036 30.59 865 25.54 6.3 43.4 35 -7.9 17.7 0
14:58 1036 30.59 865 25.54 6.4 43.6 33 -8.6 16.5 0
14:59 1036 30.59 865 25.54 6.4 43.5 36 -7.5 18.5 0
15:00 1036 30.59 865 25.54 6.4 43.5 37 -7.3 18.9 0
15:01 1036 30.59 865 25.54 6.5 43.7 36 -7.6 18.4 0
15:02 1036 30.59 865 25.54 6.5 43.8 33 -8.6 16.5 0
15:03 1036 30.59 865 25.54 6.2 43.2 35 -8.1 17.4 0
15:04 1036 30.59 865 25.54 6 42.8 34 -8.6 16.4 0
15:05 1036 30.59 865 25.54 5.9 42.6 35 -8.4 16.9 0
15:06 1036 30.59 865 25.54 6 42.8 35 -8.2 17.2 0
15:07 1036 30.59 865 25.54 6.1 42.9 36 -7.9 17.9 0
15:08 1036 30.59 865 25.54 6 42.7 35 -8.4 16.9 0
15:09 1036 30.59 865 25.54 5.8 42.5 36 -8 17.6 0
15:10 1036 30.59 865 25.54 5.8 42.5 36 -8.1 17.4 0
15:11 1036 30.59 865 25.54 5.8 42.5 35 -8.4 17 0
15:12 1036 30.59 865 25.54 5.9 42.6 35 -8.4 16.9 0
15:13 1036 30.59 865 25.54 5.9 42.7 35 -8.2 17.2 0
15:14 1036 30.59 865 25.54 6.1 42.9 34 -8.5 16.7 0
15:15 1036 30.59 865 25.54 6.1 43.1 35 -8.1 17.4 0
15:16 1036 30.59 865 25.54 6.3 43.3 37 -7.3 18.9 0
15:17 1036 30.59 865 25.54 6.3 43.4 36 -7.5 18.4 0
15:18 1036 30.59 865 25.54 6.3 43.4 35 -8 17.6 0
15:19 1036 30.59 865 25.54 6.4 43.4 37 -7.2 19 0
15:20 1036 30.59 865 25.54 6.3 43.4 36 -7.7 18.1 0
15:21 1036 30.59 865 25.54 6.3 43.3 37 -7.3 18.9 0
15:22 1036 30.59 865 25.54 6.3 43.3 36 -7.8 17.9 0
15:23 1036 30.59 865 25.54 6.2 43.2 33 -8.7 16.3 0
15:24 1036 30.59 865 25.54 6.2 43.2 37 -7.4 18.6 0
15:25 1036 30.59 865 25.54 6.2 43.2 37 -7.5 18.4 0
15:26 1036 30.59 865 25.54 6.2 43.1 34 -8.4 16.8 0
15:27 1036 30.59 865 25.54 6.2 43.1 34 -8.6 16.5 0
15:28 1036 30.59 865 25.54 6.2 43.1 36 -7.9 17.8 0
15:29 1036 30.59 865 25.54 6.2 43.1 36 -7.9 17.8 0
15:30 1036 30.59 865 25.54 6.2 43.1 34 -8.5 16.7 0
15:31 1036 30.59 865 25.54 6.1 43 34 -8.8 16.2 0
15:32 1036 30.59 865 25.54 6.2 43.2 33 -8.7 16.3 0
15:33 1036 30.59 865 25.54 6.2 43.2 33 -8.9 15.9 0
15:34 1036 30.59 865 25.54 6.3 43.3 34 -8.6 16.5 0
15:35 1036 30.59 865 25.54 6.2 43.2 35 -8.2 17.2 0
15:36 1036 30.59 865 25.54 6.3 43.3 36 -7.8 18 0
15:37 1036 30.59 865 25.54 6.3 43.4 33 -8.6 16.5 0
15:38 1036 30.59 865 25.54 6.4 43.5 34 -8.2 17.2 0
15:39 1036 30.59 865 25.54 6.4 43.6 36 -7.6 18.4 0
15:40 1036 30.59 865 25.54 6.4 43.4 34 -8.5 16.7 0
15:41 1036 30.59 865 25.54 6.3 43.4 34 -8.3 17.1 0
15:42 1036 30.59 865 25.54 6.5 43.7 34 -8.2 17.2 0
15:43 1036 30.59 865 25.54 6.7 44 34 -8 17.6 0
15:44 1036 30.59 865 25.54 6.7 44 33 -8.4 16.9 0
15:45 1036 30.59 865 25.54 6.6 43.9 34 -8.3 17.1 0
15:46 1036 30.59 865 25.54 6.6 43.8 34 -8.4 17 0
15:47 1036 30.59 865 25.54 6.5 43.6 34 -8.4 16.9 0
15:48 1036 30.59 865 25.54 6.5 43.6 35 -8 17.6 0
15:49 1036 30.59 865 25.54 6.6 43.8 36 -7.6 18.3 0
15:50 1036 30.59 865 25.54 6.6 43.8 33 -8.5 16.7 0
15:51 1036 30.59 865 25.54 6.4 43.6 33 -8.6 16.5 0
15:52 1036 30.59 865 25.54 6.3 43.4 33 -8.6 16.4 0
15:53 1036 30.59 865 25.54 6.4 43.6 33 -8.6 16.6 0
15:54 1036 30.59 865 25.54 6.5 43.6 33 -8.5 16.7 0
15:55 1036 30.59 865 25.54 6.4 43.5 33 -8.6 16.5 0
15:56 1036 30.59 865 25.54 6.3 43.3 34 -8.6 16.6 0
15:57 1036 30.59 865 25.54 6.3 43.4 34 -8.3 17 0
15:58 1036 30.59 865 25.54 6.5 43.6 33 -8.8 16.1 0
15:59 1036 30.59 865 25.54 6.6 43.9 33 -8.4 16.9 0
16:00 1036 30.59 865 25.54 6.6 43.9 33 -8.4 17 0
16:01 1036 30.59 865 25.54 6.7 44.1 34 -7.9 17.8 0
16:02 1036 30.59 865 25.54 7 44.5 34 -7.9 17.8 0
16:03 1036 30.59 865 25.54 7.1 44.8 34 -7.7 18.1 0
16:04 1036 30.59 865 25.54 7.2 45 33 -8.1 17.4 0
16:05 1036 30.59 865 25.54 7.1 44.8 33 -8.1 17.3 0
16:06 1036 30.59 865 25.54 7 44.6 33 -8.1 17.4 0
16:07 1036 30.59 865 25.54 6.9 44.5 34 -7.9 17.8 0
16:08 1036 30.59 865 25.54 6.9 44.5 33 -8.2 17.2 0
16:09 1036 30.59 865 25.54 6.9 44.4 33 -8.2 17.3 0
16:10 1036 30.59 865 25.54 6.8 44.3 33 -8.5 16.7 0
16:11 1036 30.59 865 25.54 6.7 44 33 -8.5 16.6 0
16:12 1036 30.59 865 25.54 6.7 44 32 -8.8 16.2 0
16:13 1036 30.59 865 25.54 6.8 44.2 32 -8.6 16.5 0
16:14 1036 30.59 865 25.54 6.8 44.3 32 -8.8 16.2 0
16:15 1036 30.59 865 25.54 6.7 44 33 -8.4 16.8 0
16:16 1036 30.59 865 25.54 6.7 44 33 -8.6 16.4 0
16:17 1036 30.59 865 25.54 6.7 44 33 -8.5 16.7 0
16:18 1036 30.59 865 25.54 6.8 44.2 33 -8.4 17 0
16:19 1036 30.59 865 25.54 6.8 44.3 32 -8.6 16.4 0
16:20 1036 30.59 865 25.54 6.8 44.3 32 -8.7 16.4 0
16:21 1036 30.59 865 25.54 7 44.6 33 -8.2 17.3 0
16:22 1036 30.59 865 25.54 7.1 44.7 32 -8.5 16.8 0
16:23 1036 30.59 865 25.54 7.1 44.7 33 -8.2 17.2 0
16:24 1036 30.59 865 25.54 7.2 44.9 32 -8.5 16.6 0
16:25 1036 30.59 865 25.54 7.3 45.1 32 -8.3 17 0
16:26 1036 30.59 865 25.54 7.4 45.3 32 -8.2 17.2 0
16:27 1036 30.59 865 25.54 7.4 45.4 33 -7.8 18 0
16:28 1036 30.59 865 25.54 7.4 45.4 31 -8.6 16.4 0
16:29 1036 30.59 865 25.54 7.3 45.2 31 -8.6 16.5 0
16:30 1036 30.59 865 25.54 7.3 45.1 31 -8.7 16.4 0
16:31 1036 30.59 865 25.54 7.3 45.2 31 -8.7 16.4 0
16:32 1036 30.59 865 25.54 7.4 45.2 32 -8.1 17.3 0
16:33 1036 30.59 865 25.54 7.3 45.2 33 -8 17.6 0
16:34 1036 30.59 865 25.54 7.1 44.9 35 -7.2 19 0
16:35 1036 30.59 865 25.54 7 44.5 33 -8.1 17.5 0
16:36 1036 30.59 865 25.54 6.9 44.4 33 -8.3 17 0
16:37 1036 30.59 865 25.54 6.8 44.3 33 -8.4 16.9 0
16:38 1036 30.59 865 25.54 6.8 44.3 34 -8.1 17.5 0
16:39 1036 30.59 865 25.54 6.9 44.3 32 -8.6 16.5 0
16:40 1036 30.59 865 25.54 6.9 44.4 32 -8.8 16.2 0
16:41 1036 30.59 865 25.54 7 44.6 32 -8.6 16.5 0
16:42 1036 30.59 865 25.54 7.1 44.8 31 -8.8 16.1 0
16:43 1036 30.59 865 25.54 7.2 45 32 -8.6 16.6 0
16:44 1036 30.59 865 25.54 7.3 45.1 32 -8.5 16.6 0
16:45 1036 30.59 865 25.54 7.3 45.2 31 -8.5 16.6 0
16:46 1036 30.59 865 25.54 7.3 45.1 32 -8.2 17.2 0
16:47 1036 30.59 865 25.54 7.3 45.1 33 -8.1 17.4 0
16:48 1036 30.59 865 25.54 7.4 45.4 32 -8.2 17.3 0
16:49 1036 30.59 865 25.54 7.5 45.6 31 -8.3 17 0
16:50 1036 30.59 865 25.54 7.4 45.3 32 -8.3 17 0
16:51 1036 30.59 865 25.54 7.2 44.9 31 -8.7 16.3 0
16:52 1036 30.59 865 25.54 7.1 44.7 31 -8.7 16.3 0
16:53 1036 30.59 865 25.54 7 44.5 32 -8.8 16.1 0
16:54 1036 30.59 865 25.54 7 44.6 32 -8.7 16.3 0
16:55 1036 30.59 865 25.54 7 44.7 31 -8.8 16.2 0
16:56 1036 30.59 865 25.54 7 44.7 32 -8.6 16.5 0
16:57 1036 30.59 865 25.54 7.2 44.9 32 -8.3 17.1 0
16:58 1035 30.56 865 25.54 7.2 45 32 -8.4 17 0
16:59 1035 30.56 865 25.54 7.2 45 31 -8.6 16.5 0
17:00 1036 30.59 865 25.54 7.2 45 32 -8.4 16.8 0
17:01 1035 30.56 865 25.54 7.1 44.8 32 -8.7 16.4 0
17:02 1035 30.56 865 25.54 7 44.7 33 -8.2 17.2 0
17:03 1035 30.56 865 25.54 6.9 44.4 33 -8.4 16.9 0
17:04 1035 30.56 865 25.54 6.7 44.1 33 -8.5 16.7 0
17:05 1035 30.56 865 25.54 6.6 43.9 34 -8.3 17 0
17:06 1035 30.56 865 25.54 6.6 43.8 35 -7.6 18.2 0
17:07 1035 30.56 865 25.54 6.5 43.8 34 -8.2 17.3 0
17:08 1035 30.56 865 25.54 6.5 43.8 34 -8.4 17 0
17:09 1035 30.56 865 25.54 6.5 43.7 33 -8.6 16.5 0
17:10 1035 30.56 865 25.54 6.5 43.8 34 -8.3 17 0
17:11 1035 30.56 865 25.54 6.5 43.8 34 -8.1 17.4 0
17:12 1035 30.56 865 25.54 6.5 43.6 33 -8.6 16.5 0
17:13 1035 30.56 865 25.54 6.4 43.6 33 -8.5 16.7 0
17:14 1035 30.56 865 25.54 6.4 43.6 33 -8.6 16.5 0
17:15 1035 30.56 865 25.54 6.5 43.6 34 -8.4 16.8 0
17:16 1035 30.56 865 25.54 6.5 43.7 33 -8.5 16.8 0
17:17 1035 30.56 865 25.54 6.5 43.7 34 -8.3 17.1 0
17:18 1036 30.59 865 25.54 6.6 43.8 33 -8.5 16.7 0
17:19 1035 30.56 865 25.54 6.6 43.9 34 -8.2 17.2 0
17:20 1035 30.56 865 25.54 6.7 44.1 34 -7.9 17.8 0
17:21 1036 30.59 865 25.54 6.8 44.3 33 -8.4 16.8 0
17:22 1036 30.59 865 25.54 6.9 44.4 32 -8.5 16.7 0
17:23 1035 30.56 865 25.54 7 44.7 33 -8.3 17.1 0
17:24 1035 30.56 865 25.54 7.1 44.8 32 -8.3 17 0
17:25 1035 30.56 865 25.54 7.3 45.1 32 -8.4 16.8 0
17:26 1035 30.56 865 25.54 7.4 45.4 32 -8 17.6 0
17:27 1035 30.56 865 25.54 7.5 45.5 31 -8.5 16.6 0
17:28 1035 30.56 865 25.54 7.5 45.5 32 -8.4 16.9 0
17:29 1035 30.56 865 25.54 7.4 45.3 32 -8.3 17 0
17:30 1035 30.56 865 25.54 7.4 45.3 32 -8.4 17 0
17:31 1035 30.56 865 25.54 7.3 45.1 33 -8.1 17.4 0
17:32 1035 30.56 865 25.54 7.1 44.8 33 -8.1 17.4 0
17:33 1035 30.56 865 25.54 6.9 44.4 33 -8.2 17.3 0
17:34 1035 30.56 865 25.54 6.7 44.1 33 -8.2 17.2 0
17:35 1035 30.56 865 25.54 6.6 43.8 34 -8.1 17.4 0
17:36 1035 30.56 865 25.54 6.5 43.7 35 -7.8 18 0
17:37 1035 30.56 865 25.54 6.4 43.5 35 -8 17.6 0
17:38 1035 30.56 865 25.54 6.3 43.4 34 -8.3 17 0
17:39 1035 30.56 865 25.54 6.2 43.2 35 -8.3 17.1 0
17:40 1035 30.56 864 25.51 6.1 43 35 -8.4 16.9 0
17:41 1035 30.56 865 25.54 6 42.8 35 -8.4 16.8 0
17:42 1035 30.56 865 25.54 6 42.8 35 -8.5 16.7 0
17:43 1035 30.56 864 25.51 5.9 42.6 35 -8.5 16.7 0
17:44 1035 30.56 865 25.54 5.8 42.5 35 -8.4 16.9 0
17:45 1035 30.56 864 25.51 5.7 42.3 36 -8.2 17.2 0
17:46 1035 30.56 864 25.51 5.6 42 36 -8.4 16.9 0
17:47 1035 30.56 864 25.51 5.5 41.9 36 -8.3 17 0
17:48 1035 30.56 864 25.51 5.4 41.6 37 -8.3 17 0
17:49 1035 30.56 864 25.51 5.2 41.4 37 -8.3 17 0
17:50 1035 30.56 864 25.51 5.1 41.2 37 -8.4 16.9 0
17:51 1035 30.56 864 25.51 5.1 41.1 37 -8.4 16.9 0
17:52 1035 30.56 864 25.51 5 40.9 38 -8.3 17.1 0
17:53 1035 30.56 864 25.51 4.9 40.9 38 -8.2 17.2 0
17:54 1035 30.56 864 25.51 4.8 40.7 38 -8.4 17 0
17:55 1035 30.56 864 25.51 4.7 40.5 38 -8.4 16.9 0
17:56 1035 30.56 864 25.51 4.7 40.4 38 -8.5 16.8 0
17:57 1035 30.56 864 25.51 4.6 40.2 38 -8.5 16.7 0
17:58 1035 30.56 864 25.51 4.6 40.2 39 -8.4 16.9 0
17:59 1035 30.56 864 25.51 4.5 40.1 39 -8.3 17.1 0
18:00 1035 30.56 864 25.51 4.4 40 39 -8.4 16.9 0
18:01 1035 30.56 864 25.51 4.4 39.9 39 -8.2 17.2 0
18:02 1035 30.56 864 25.51 4.4 39.9 39 -8.3 17.1 0
18:03 1035 30.56 864 25.51 4.3 39.8 40 -8.2 17.2 0
18:04 1035 30.56 864 25.51 4.3 39.7 39 -8.3 17 0
18:05 1035 30.56 864 25.51 4.3 39.7 40 -8.2 17.2 0
18:06 1035 30.56 864 25.51 4.2 39.6 40 -8.4 17 0
18:07 1035 30.56 864 25.51 4.2 39.6 40 -8.2 17.2 0
18:08 1035 30.56 864 25.51 4.2 39.6 40 -8.3 17.1 0
18:09 1035 30.56 864 25.51 4.2 39.5 40 -8.4 16.9 0
18:10 1035 30.56 864 25.51 4.1 39.5 40 -8.2 17.2 0
18:11 1035 30.56 864 25.51 4.1 39.3 40 -8.2 17.3 0
18:12 1035 30.56 864 25.51 4 39.2 41 -8.2 17.3 0
18:13 1035 30.56 864 25.51 3.9 39 41 -8.2 17.3 0
18:14 1035 30.56 864 25.51 3.8 38.8 41 -8.1 17.4 0
18:15 1035 30.56 864 25.51 3.7 38.7 42 -8.2 17.3 0
18:16 1035 30.56 864 25.51 3.7 38.6 42 -8.1 17.4 0
18:17 1035 30.56 864 25.51 3.6 38.5 42 -8.1 17.4 0
18:18 1035 30.56 864 25.51 3.5 38.3 42 -8.1 17.4 0
18:19 1035 30.56 864 25.51 3.5 38.2 42 -8.1 17.3 0
18:20 1035 30.56 864 25.51 3.5 38.2 42 -8.2 17.3 0
18:21 1035 30.56 864 25.51 3.5 38.2 43 -8 17.6 0
18:22 1035 30.56 864 25.51 3.4 38.1 43 -8.1 17.5 0
18:23 1035 30.56 864 25.51 3.3 37.9 43 -8.1 17.4 0
18:24 1035 30.56 864 25.51 3.3 37.9 43 -8.1 17.5 0
18:25 1035 30.56 864 25.51 3.3 38 43 -8 17.5 0
18:26 1035 30.56 864 25.51 3.3 37.9 43 -8.1 17.4 0
18:27 1035 30.56 864 25.51 3.3 38 43 -8.1 17.4 0
18:28 1035 30.56 864 25.51 3.3 38 43 -8 17.7 0
18:29 1035 30.56 864 25.51 3.2 37.8 44 -8 17.6 0
18:30 1035 30.56 864 25.51 3.1 37.7 44 -8 17.5 0
18:31 1035 30.56 864 25.51 3 37.4 44 -8 17.6 0
18:32 1035 30.56 864 25.51 3 37.3 44 -8.1 17.4 0
18:33 1035 30.56 864 25.51 2.9 37.3 44 -8 17.5 0
18:34 1035 30.56 864 25.51 2.5 36.4 48 -7.6 18.3 0
18:35 1035 30.56 864 25.51 1.3 34.3 53 -7.4 18.7 0
18:36 1035 30.56 864 25.51 0.3 32.5 56 -7.4 18.7 0
18:37 1035 30.56 864 25.51 -0.5 31.2 60 -7.3 18.8 0
18:38 1035 30.56 864 25.51 -0.9 30.3 62 -7.4 18.7 0
18:39 1035 30.56 864 25.51 -1.3 29.7 63 -7.4 18.7 0
18:40 1035 30.56 864 25.51 -1.6 29.1 65 -7.4 18.7 0
18:41 1035 30.56 864 25.51 -1.8 28.8 65 -7.4 18.6 0
18:42 1035 30.56 864 25.51 -2 28.3 66 -7.5 18.5 0
18:43 1035 30.56 864 25.51 -2.4 27.8 68 -7.5 18.4 0
18:44 1035 30.56 864 25.51 -2.6 27.3 69 -7.6 18.4 0
18:45 1035 30.56 864 25.51 -2.9 26.7 71 -7.6 18.4 0
18:46 1035 30.56 864 25.51 -3.2 26.2 72 -7.6 18.3 0
18:47 1035 30.56 864 25.51 -3.3 26 73 -7.5 18.5 0
18:48 1035 30.56 864 25.51 -3.4 25.9 73 -7.5 18.5 0
18:49 1035 30.56 864 25.51 -3.4 25.8 74 -7.5 18.5 0
18:50 1035 30.56 864 25.51 -3.5 25.6 74 -7.5 18.4 0
18:51 1035 30.56 864 25.51 -3.8 25.1 75 -7.6 18.4 0
18:52 1035 30.56 864 25.51 -3.9 25 76 -7.5 18.5 0
18:53 1035 30.56 864 25.51 -4 24.8 77 -7.5 18.6 0
18:54 1035 30.56 864 25.51 -4.1 24.6 77 -7.5 18.5 0
18:55 1035 30.56 864 25.51 -4.1 24.6 78 -7.4 18.6 0
18:56 1035 30.56 864 25.51 -4.2 24.5 78 -7.4 18.7 0
18:57 1035 30.56 864 25.51 -4.2 24.5 78 -7.4 18.7 0
18:58 1035 30.56 864 25.51 -4.2 24.4 79 -7.4 18.7 0
18:59 1035 30.56 864 25.51 -4.3 24.2 79 -7.4 18.6 0
19:00 1035 30.56 864 25.51 -4.5 24 80 -7.4 18.6 0
19:01 1035 30.56 864 25.51 -4.5 23.9 81 -7.3 18.8 0
19:02 1035 30.56 864 25.51 -4.5 24 80 -7.4 18.7 0
19:03 1035 30.56 864 25.51 -4.4 24.1 80 -7.4 18.8 0
19:04 1035 30.56 864 25.51 -4.4 24.2 80 -7.4 18.7 0
19:05 1035 30.56 864 25.51 -4.4 24.1 79 -7.5 18.6 0
19:06 1035 30.56 864 25.51 -4.5 23.9 80 -7.5 18.5 0
19:07 1035 30.56 864 25.51 -4.5 23.9 80 -7.5 18.5 0
19:08 1035 30.56 864 25.51 -4.5 23.8 80 -7.5 18.4 0
19:09 1035 30.56 864 25.51 -4.6 23.8 80 -7.6 18.4 0
19:10 1035 30.56 864 25.51 -4.5 23.9 79 -7.6 18.2 0
19:11 1035 30.56 864 25.51 -4.4 24 78 -7.7 18.2 0
19:12 1035 30.56 864 25.51 -4.4 24.2 78 -7.7 18.2 0
19:13 1035 30.56 864 25.51 -4.3 24.3 77 -7.7 18.2 0
19:14 1035 30.56 864 25.51 -4.3 24.2 77 -7.8 18 0
19:15 1035 30.56 864 25.51 -4.5 23.8 77 -7.9 17.8 0
19:16 1035 30.56 864 25.51 -4.7 23.6 79 -7.9 17.9 0
19:17 1035 30.56 864 25.51 -4.8 23.4 79 -7.8 17.9 0
19:18 1035 30.56 864 25.51 -4.8 23.3 80 -7.8 18 0
19:19 1035 30.56 864 25.51 -5 23.1 80 -7.8 17.9 0
19:20 1035 30.56 864 25.51 -5 23 81 -7.8 18 0
19:21 1035 30.56 864 25.51 -5 23 81 -7.8 18 0
19:22 1035 30.56 864 25.51 -4.9 23.2 80 -7.8 18 0
19:23 1035 30.56 864 25.51 -4.8 23.4 79 -7.8 17.9 0
19:24 1035 30.56 864 25.51 -4.7 23.5 79 -7.8 18 0
19:25 1035 30.56 864 25.51 -4.7 23.5 79 -7.8 18 0
19:26 1035 30.56 864 25.51 -4.6 23.6 79 -7.8 17.9 0
19:27 1035 30.56 864 25.51 -4.6 23.7 78 -7.9 17.9 0
19:28 1035 30.56 864 25.51 -4.6 23.7 78 -7.9 17.7 0
19:29 1035 30.56 864 25.51 -4.7 23.6 78 -7.9 17.7 0
19:30 1035 30.56 864 25.51 -4.7 23.5 78 -8 17.6 0
19:31 1035 30.56 864 25.51 -4.8 23.3 78 -8 17.5 0
19:32 1035 30.56 864 25.51 -4.8 23.4 78 -8 17.6 0
19:33 1035 30.56 864 25.51 -4.8 23.4 78 -8.1 17.5 0
19:34 1035 30.56 864 25.51 -4.8 23.4 78 -8.1 17.4 0
19:35 1035 30.56 864 25.51 -4.8 23.4 78 -8.1 17.4 0
19:36 1035 30.56 864 25.51 -4.8 23.4 77 -8.1 17.3 0
19:37 1035 30.56 864 25.51 -4.7 23.5 77 -8.2 17.3 0
19:38 1035 30.56 864 25.51 -4.7 23.6 76 -8.2 17.2 0
19:39 1035 30.56 864 25.51 -4.6 23.7 76 -8.3 17.1 0
19:40 1035 30.56 864 25.51 -4.7 23.6 76 -8.3 17.1 0
19:41 1035 30.56 864 25.51 -4.6 23.7 76 -8.3 17.1 0
19:42 1035 30.56 864 25.51 -4.6 23.7 75 -8.3 17.1 0
19:43 1035 30.56 864 25.51 -4.5 23.8 75 -8.3 17.1 0
19:44 1035 30.56 864 25.51 -4.6 23.8 76 -8.2 17.2 0
19:45 1035 30.56 864 25.51 -4.6 23.7 76 -8.3 17.1 0
19:46 1035 30.56 864 25.51 -4.6 23.8 75 -8.3 17.1 0
19:47 1035 30.56 864 25.51 -4.5 23.9 75 -8.3 17.1 0
19:48 1035 30.56 864 25.51 -4.5 23.9 75 -8.2 17.2 0
19:49 1035 30.56 864 25.51 -4.5 23.9 75 -8.3 17.1 0
19:50 1035 30.56 864 25.51 -4.5 24 75 -8.3 17.1 0
19:51 1035 30.56 864 25.51 -4.3 24.3 74 -8.3 17.1 0
19:52 1035 30.56 864 25.51 -4.1 24.6 73 -8.2 17.3 0
19:53 1035 30.56 864 25.51 -4.1 24.7 73 -8.2 17.3 0
19:54 1035 30.56 864 25.51 -4.1 24.7 73 -8.2 17.2 0
19:55 1035 30.56 864 25.51 -4 24.9 73 -8.2 17.3 0
19:56 1035 30.56 864 25.51 -4 24.8 73 -8.2 17.3 0
19:57 1035 30.56 864 25.51 -4.2 24.4 74 -8.2 17.3 0
19:58 1035 30.56 864 25.51 -4.5 24 75 -8.3 17.1 0
19:59 1035 30.56 864 25.51 -4.7 23.6 76 -8.3 17 0
20:00 1035 30.56 864 25.51 -4.8 23.4 76 -8.4 16.9 0
20:01 1035 30.56 864 25.51 -4.9 23.1 77 -8.3 17 0
20:02 1035 30.56 864 25.51 -5.1 22.8 78 -8.3 17 0
20:03 1035 30.56 864 25.51 -5.2 22.6 79 -8.4 16.9 0
20:04 1035 30.56 864 25.51 -5.3 22.5 78 -8.5 16.7 0
20:05 1035 30.56 864 25.51 -5.2 22.7 77 -8.6 16.6 0
20:06 1035 30.56 864 25.51 -5.1 22.8 76 -8.7 16.4 0
20:07 1035 30.56 864 25.51 -5.2 22.6 77 -8.7 16.4 0
20:08 1035 30.56 864 25.51 -5.4 22.3 78 -8.7 16.4 0
20:09 1035 30.56 864 25.51 -5.4 22.2 78 -8.6 16.4 0
20:10 1035 30.56 864 25.51 -5.4 22.3 78 -8.7 16.3 0
20:11 1035 30.56 864 25.51 -5.4 22.3 77 -8.8 16.2 0
20:12 1035 30.56 864 25.51 -5.4 22.3 77 -8.8 16.2 0
20:13 1035 30.56 864 25.51 -5.2 22.7 76 -8.8 16.1 0
20:14 1035 30.56 864 25.51 -5 23 75 -8.8 16.1 0
20:15 1035 30.56 864 25.51 -5 23 75 -8.8 16.2 0
20:16 1035 30.56 864 25.51 -5 22.9 75 -8.7 16.3 0
20:17 1035 30.56 864 25.51 -5 22.9 75 -8.7 16.3 0
20:18 1035 30.56 864 25.51 -5 23 76 -8.7 16.4 0
20:19 1035 30.56 864 25.51 -5 23.1 75 -8.7 16.3 0
20:20 1035 30.56 864 25.51 -4.9 23.2 75 -8.7 16.4 0
20:21 1035 30.56 864 25.51 -4.8 23.4 74 -8.7 16.3 0
20:22 1035 30.56 864 25.51 -4.8 23.3 74 -8.7 16.3 0
20:23 1035 30.56 864 25.51 -4.8 23.4 74 -8.7 16.3 0
20:24 1035 30.56 864 25.51 -4.7 23.6 75 -8.5 16.7 0
20:25 1035 30.56 864 25.51 -4.5 23.9 74 -8.6 16.6 0
20:26 1035 30.56 864 25.51 -4.4 24.1 74 -8.4 16.8 0
20:27 1035 30.56 864 25.51 -4.3 24.2 72 -8.7 16.3 0
20:28 1035 30.56 864 25.51 -4 24.8 70 -8.7 16.3 0
20:29 1035 30.56 864 25.51 -3.9 24.9 70 -8.7 16.3 0
20:30 1035 30.56 864 25.51 -3.8 25.2 69 -8.7 16.3 0
20:31 1035 30.56 864 25.51 -3.6 25.5 68 -8.6 16.4 0
20:32 1035 30.56 864 25.51 -3.4 25.9 67 -8.8 16.2 0
20:33 1035 30.56 864 25.51 -3.3 26 66 -8.7 16.3 0
20:34 1035 30.56 864 25.51 -3.3 26.1 66 -8.7 16.4 0
20:35 1035 30.56 864 25.51 -3.2 26.2 66 -8.7 16.4 0
20:36 1035 30.56 864 25.51 -3.2 26.2 66 -8.7 16.3 0
20:37 1035 30.56 864 25.51 -3.2 26.3 66 -8.7 16.4 0
20:38 1035 30.56 864 25.51 -3.1 26.4 65 -8.7 16.4 0
20:39 1035 30.56 864 25.51 -3.1 26.5 65 -8.7 16.4 0
20:40 1035 30.56 864 25.51 -3.1 26.5 66 -8.6 16.5 0
20:41 1035 30.56 864 25.51 -3.1 26.4 66 -8.6 16.6 0
20:42 1035 30.56 864 25.51 -3.2 26.2 67 -8.6 16.6 0
20:43 1035 30.56 864 25.51 -3.2 26.2 67 -8.6 16.5 0
20:44 1035 30.56 864 25.51 -3.2 26.2 66 -8.7 16.4 0
20:45 1035 30.56 864 25.51 -3.1 26.3 66 -8.6 16.5 0
20:46 1035 30.56 864 25.51 -3.1 26.3 66 -8.6 16.6 0
20:47 1035 30.56 864 25.51 -3.2 26.2 67 -8.6 16.5 0
20:48 1035 30.56 864 25.51 -3.3 26 67 -8.6 16.6 0
20:49 1035 30.56 864 25.51 -3.3 26 67 -8.6 16.5 0
20:50 1035 30.56 864 25.51 -3.1 26.4 66 -8.6 16.5 0
20:51 1035 30.56 864 25.51 -3 26.7 65 -8.6 16.5 0
20:52 1035 30.56 864 25.51 -2.8 26.9 65 -8.5 16.7 0
20:53 1035 30.56 864 25.51 -2.8 27 64 -8.6 16.5 0
20:54 1035 30.56 864 25.51 -2.9 26.8 65 -8.5 16.8 0
20:55 1035 30.56 864 25.51 -3 26.7 66 -8.5 16.7 0
20:56 1035 30.56 864 25.51 -2.9 26.7 65 -8.6 16.5 0
20:57 1035 30.56 864 25.51 -2.9 26.8 64 -8.7 16.3 0
20:58 1035 30.56 864 25.51 -2.7 27.1 63 -8.8 16.1 0
20:59 1035 30.56 864 25.51 -2.6 27.3 63 -8.6 16.5 0
21:00 1035 30.56 864 25.51 -2.8 26.9 65 -8.6 16.5 0
21:01 1035 30.56 864 25.51 -3.1 26.4 66 -8.7 16.4 0
21:02 1035 30.56 864 25.51 -3.5 25.7 67 -8.8 16.2 0
21:03 1035 30.56 864 25.51 -3.7 25.4 67 -8.9 16 0
21:04 1035 30.56 864 25.51 -3.8 25.1 67 -9 15.8 0
21:05 1035 30.56 864 25.51 -3.8 25.2 67 -9.1 15.6 0
21:06 1035 30.56 864 25.51 -3.5 25.7 64 -9.3 15.3 0
21:07 1035 30.56 864 25.51 -3.1 26.4 62 -9.4 15.2 0
21:08 1035 30.56 864 25.51 -2.7 27.2 60 -9.4 15.2 0
21:09 1035 30.56 864 25.51 -2.4 27.7 59 -9.3 15.3 0
21:10 1035 30.56 864 25.51 -2.3 27.9 59 -9.2 15.4 0
21:11 1035 30.56 864 25.51 -2.3 27.9 60 -9.1 15.5 0
21:12 1035 30.56 864 25.51 -2.5 27.6 60 -9.1 15.6 0
21:13 1035 30.56 864 25.51 -2.6 27.4 61 -9.1 15.7 0
21:14 1035 30.56 864 25.51 -2.8 27 62 -9.1 15.6 0
21:15 1035 30.56 864 25.51 -2.9 26.8 62 -9.2 15.5 0
21:16 1035 30.56 864 25.51 -3.1 26.4 63 -9.2 15.4 0
21:17 1035 30.56 864 25.51 -3.3 26 64 -9.2 15.4 0
21:18 1035 30.56 864 25.51 -3.7 25.3 65 -9.3 15.2 0
21:19 1035 30.56 864 25.51 -3.8 25.2 64 -9.6 14.8 0
21:20 1035 30.56 864 25.51 -3.5 25.8 62 -9.7 14.6 0
21:21 1035 30.56 864 25.51 -3.2 26.3 60 -9.8 14.3 0
21:22 1035 30.56 864 25.51 -2.9 26.8 59 -9.7 14.5 0
21:23 1035 30.56 864 25.51 -3 26.7 60 -9.6 14.7 0
21:24 1035 30.56 864 25.51 -3.2 26.3 61 -9.7 14.6 0
21:25 1035 30.56 864 25.51 -3.3 26 62 -9.6 14.8 0
21:26 1035 30.56 864 25.51 -3.5 25.7 62 -9.8 14.3 0
21:27 1035 30.56 864 25.51 -3.4 25.8 60 -10.2 13.7 0
21:28 1035 30.56 864 25.51 -3.1 26.5 57 -10.4 13.3 0
21:29 1035 30.56 864 25.51 -2.7 27.2 55 -10.5 13.2 0
21:30 1035 30.56 864 25.51 -2.4 27.8 54 -10.5 13.1 0
21:31 1035 30.56 864 25.51 -2.1 28.2 53 -10.4 13.3 0
21:32 1035 30.56 864 25.51 -2 28.3 53 -10.3 13.5 0
21:33 1035 30.56 864 25.51 -2 28.3 52 -10.7 12.8 0
21:34 1035 30.56 864 25.51 -1.8 28.7 51 -10.7 12.7 0
21:35 1035 30.56 864 25.51 -1.6 29.2 50 -10.6 12.9 0
21:36 1035 30.56 864 25.51 -1.5 29.3 51 -10.4 13.2 0
21:37 1035 30.56 864 25.51 -1.6 29.1 51 -10.4 13.3 0
21:38 1035 30.56 864 25.51 -1.7 28.9 52 -10.4 13.3 0
21:39 1035 30.56 864 25.51 -1.8 28.8 53 -10.2 13.6 0
21:40 1035 30.56 864 25.51 -2.1 28.3 54 -10.1 13.8 0
21:41 1035 30.56 864 25.51 -2.6 27.3 58 -9.8 14.4 0
21:42 1035 30.56 864 25.51 -3.4 25.9 61 -9.9 14.3 0
21:43 1035 30.56 864 25.51 -3.6 25.6 60 -10.2 13.6 0
21:44 1035 30.56 864 25.51 -3.3 26 60 -9.9 14.1 0
21:45 1035 30.56 864 25.51 -3.7 25.3 63 -9.8 14.4 0
21:46 1035 30.56 864 25.51 -4.4 24.1 67 -9.7 14.6 0
21:47 1035 30.56 864 25.51 -5 23.1 69 -9.7 14.5 0
21:48 1035 30.56 864 25.51 -5.3 22.5 71 -9.7 14.5 0
21:49 1035 30.56 864 25.51 -5.3 22.4 71 -9.7 14.6 0
21:50 1035 30.56 864 25.51 -5.3 22.5 71 -9.7 14.6 0
21:51 1035 30.56 864 25.51 -5.3 22.5 72 -9.6 14.8 0
21:52 1035 30.56 864 25.51 -5.4 22.2 73 -9.6 14.8 0
21:53 1035 30.56 864 25.51 -5.3 22.5 72 -9.6 14.7 0
21:54 1035 30.56 864 25.51 -5.4 22.3 73 -9.6 14.8 0
21:55 1035 30.56 864 25.51 -5.3 22.5 71 -9.7 14.5 0
21:56 1035 30.56 864 25.51 -5.4 22.3 73 -9.5 14.9 0
21:57 1035 30.56 864 25.51 -5.6 22 74 -9.6 14.8 0
21:58 1035 30.56 864 25.51 -5.7 21.8 74 -9.5 14.9 0
21:59 1035 30.56 864 25.51 -5.7 21.7 74 -9.6 14.7 0
22:00 1035 30.56 864 25.51 -5.7 21.7 75 -9.6 14.8 0
22:01 1035 30.56 864 25.51 -5.7 21.8 74 -9.5 14.8 0
22:02 1035 30.56 864 25.51 -5.5 22.2 73 -9.5 14.9 0
22:03 1035 30.56 864 25.51 -5.5 22.1 74 -9.5 14.9 0
22:04 1035 30.56 864 25.51 -5.7 21.8 74 -9.6 14.8 0
22:05 1035 30.56 864 25.51 -5.8 21.5 75 -9.6 14.8 0
22:06 1035 30.56 864 25.51 -6 21.2 76 -9.6 14.8 0
22:07 1035 30.56 864 25.51 -6 21.3 76 -9.6 14.7 0
22:08 1035 30.56 864 25.51 -5.9 21.4 75 -9.6 14.7 0
22:09 1035 30.56 864 25.51 -5.8 21.5 76 -9.4 15 0
22:10 1035 30.56 864 25.51 -5.7 21.7 74 -9.6 14.7 0
22:11 1035 30.56 864 25.51 -5.3 22.5 71 -9.8 14.4 0
22:12 1035 30.56 864 25.51 -4.9 23.2 69 -9.8 14.4 0
22:13 1035 30.56 864 25.51 -4.6 23.8 67 -9.9 14.2 0
22:14 1035 30.56 864 25.51 -4.2 24.4 65 -9.8 14.4 0
22:15 1035 30.56 864 25.51 -4.1 24.7 65 -9.7 14.5 0
22:16 1035 30.56 864 25.51 -4.1 24.7 65 -9.7 14.6 0
22:17 1035 30.56 864 25.51 -4.3 24.3 67 -9.6 14.7 0
22:18 1035 30.56 864 25.51 -4.5 23.9 68 -9.6 14.7 0
22:19 1035 30.56 864 25.51 -4.7 23.5 68 -9.7 14.5 0
22:20 1035 30.56 864 25.51 -4.7 23.5 67 -10 14 0
22:21 1035 30.56 864 25.51 -4.5 23.9 67 -9.6 14.6 0
22:22 1035 30.56 864 25.51 -4.7 23.5 69 -9.5 14.8 0
22:23 1035 30.56 864 25.51 -5 23 71 -9.5 14.9 0
22:24 1035 30.56 864 25.51 -5.3 22.5 72 -9.5 14.8 0
22:25 1035 30.56 864 25.51 -5.4 22.3 73 -9.5 14.9 0
22:26 1035 30.56 864 25.51 -5.5 22.2 73 -9.6 14.8 0
22:27 1035 30.56 864 25.51 -5.4 22.2 73 -9.5 14.8 0
22:28 1035 30.56 864 25.51 -5.4 22.3 73 -9.5 15 0
22:29 1035 30.56 864 25.51 -5.2 22.6 73 -9.4 15.1 0
22:30 1035 30.56 864 25.51 -5.3 22.5 74 -9.3 15.3 0
22:31 1035 30.56 864 25.51 -5.5 22.1 75 -9.3 15.2 0
22:32 1035 30.56 864 25.51 -5.7 21.8 76 -9.3 15.2 0
22:33 1035 30.56 864 25.51 -5.8 21.5 77 -9.3 15.3 0
22:34 1035 30.56 864 25.51 -6 21.3 77 -9.4 15.1 0
22:35 1035 30.56 864 25.51 -6.2 20.9 79 -9.3 15.3 0
22:36 1035 30.56 864 25.51 -6.1 21.1 79 -9.1 15.6 0
22:37 1035 30.56 864 25.51 -5.8 21.6 77 -9.2 15.5 0
22:38 1035 30.56 864 25.51 -5.7 21.7 77 -9.2 15.5 0
22:39 1035 30.56 864 25.51 -5.7 21.7 77 -9.2 15.4 0
22:40 1035 30.56 864 25.51 -5.8 21.6 76 -9.3 15.3 0
22:41 1035 30.56 864 25.51 -5.9 21.4 77 -9.3 15.3 0
22:42 1035 30.56 864 25.51 -6 21.2 78 -9.3 15.3 0
22:43 1035 30.56 864 25.51 -5.9 21.3 78 -9.3 15.3 0
22:44 1035 30.56 864 25.51 -6 21.3 77 -9.3 15.3 0
22:45 1035 30.56 864 25.51 -5.9 21.3 78 -9.2 15.4 0
22:46 1035 30.56 864 25.51 -5.8 21.5 77 -9.2 15.4 0
22:47 1035 30.56 864 25.51 -5.8 21.6 77 -9.2 15.4 0
22:48 1035 30.56 864 25.51 -5.7 21.8 77 -9.2 15.5 0
22:49 1035 30.56 864 25.51 -5.5 22 77 -8.9 16 0
22:50 1035 30.56 864 25.51 -5.4 22.2 77 -8.9 16 0
22:51 1035 30.56 864 25.51 -5.3 22.4 76 -8.9 15.9 0
22:52 1035 30.56 864 25.51 -5.4 22.3 76 -9 15.9 0
22:53 1035 30.56 864 25.51 -5.4 22.3 76 -9.1 15.7 0
22:54 1035 30.56 864 25.51 -5.4 22.3 75 -9.2 15.5 0
22:55 1035 30.56 864 25.51 -5.4 22.3 75 -9.2 15.5 0
22:56 1035 30.56 864 25.51 -5.4 22.2 75 -9.2 15.4 0
22:57 1035 30.56 864 25.51 -5.5 22.1 75 -9.3 15.3 0
22:58 1035 30.56 864 25.51 -5.6 22 75 -9.3 15.3 0
22:59 1035 30.56 864 25.51 -5.7 21.7 76 -9.3 15.2 0
23:00 1035 30.56 864 25.51 -5.7 21.8 75 -9.4 15.1 0
23:01 1035 30.56 864 25.51 -5.7 21.8 75 -9.4 15.1 0
23:02 1035 30.56 864 25.51 -5.6 21.9 74 -9.5 15 0
23:03 1035 30.56 864 25.51 -5.5 22.1 74 -9.5 14.9 0
23:04 1035 30.56 864 25.51 -5.6 22 75 -9.4 15.1 0
23:05 1035 30.56 864 25.51 -5.7 21.7 76 -9.4 15.2 0
23:06 1035 30.56 864 25.51 -5.8 21.6 77 -9.3 15.3 0
23:07 1035 30.56 864 25.51 -5.9 21.4 77 -9.3 15.3 0
23:08 1035 30.56 864 25.51 -5.9 21.4 77 -9.2 15.4 0
23:09 1035 30.56 864 25.51 -5.9 21.3 77 -9.3 15.3 0
23:10 1035 30.56 864 25.51 -6.1 21.1 78 -9.3 15.3 0
23:11 1035 30.56 864 25.51 -6.2 20.9 79 -9.3 15.3 0
23:12 1035 30.56 864 25.51 -6.3 20.7 79 -9.3 15.2 0
23:13 1035 30.56 864 25.51 -6.3 20.7 79 -9.4 15.2 0
23:14 1035 30.56 864 25.51 -6.2 20.9 78 -9.4 15.1 0
23:15 1035 30.56 864 25.51 -6.1 21.1 77 -9.4 15.1 0
23:16 1035 30.56 864 25.51 -5.9 21.4 77 -9.4 15.1 0
23:17 1035 30.56 864 25.51 -5.8 21.6 76 -9.4 15.1 0
23:18 1035 30.56 864 25.51 -5.7 21.7 76 -9.4 15.1 0
23:19 1035 30.56 864 25.51 -5.6 21.9 74 -9.5 15 0
23:20 1035 30.56 864 25.51 -5.5 22.1 74 -9.4 15.1 0
23:21 1035 30.56 864 25.51 -5.6 21.9 77 -9.1 15.6 0
23:22 1035 30.56 864 25.51 -5.6 22 77 -9.1 15.7 0
23:23 1035 30.56 864 25.51 -5.5 22.1 76 -9.1 15.6 0
23:24 1035 30.56 864 25.51 -5.6 21.9 77 -9.1 15.7 0
23:25 1035 30.56 864 25.51 -5.7 21.7 77 -9.1 15.6 0
23:26 1035 30.56 864 25.51 -5.8 21.6 77 -9.2 15.4 0
23:27 1035 30.56 864 25.51 -5.9 21.4 77 -9.3 15.2 0
23:28 1035 30.56 864 25.51 -5.8 21.5 76 -9.4 15.2 0
23:29 1035 30.56 864 25.51 -5.7 21.7 76 -9.4 15.1 0
23:30 1035 30.56 864 25.51 -5.6 21.9 74 -9.4 15 0
23:31 1035 30.56 864 25.51 -5.5 22.2 74 -9.4 15 0
23:32 1035 30.56 864 25.51 -5.5 22.1 74 -9.5 15 0
23:33 1035 30.56 864 25.51 -5.5 22.2 74 -9.4 15 0
23:34 1034 30.53 864 25.51 -5.5 22.1 74 -9.4 15 0
23:35 1034 30.53 864 25.51 -5.4 22.2 74 -9.4 15.1 0
23:36 1034 30.53 864 25.51 -5.4 22.2 74 -9.5 15 0
23:37 1034 30.53 864 25.51 -5.4 22.3 74 -9.4 15.1 0
23:38 1034 30.53 864 25.51 -5.4 22.2 74 -9.4 15.1 0
23:39 1034 30.53 864 25.51 -5.6 21.9 75 -9.4 15 0
23:40 1034 30.53 864 25.51 -5.7 21.7 75 -9.5 15 0
23:41 1034 30.53 864 25.51 -5.9 21.4 76 -9.5 14.9 0
23:42 1035 30.56 864 25.51 -6 21.2 76 -9.6 14.8 0
23:43 1034 30.53 864 25.51 -6 21.1 76 -9.6 14.8 0
23:44 1035 30.56 864 25.51 -6.2 20.9 77 -9.6 14.7 0
23:45 1035 30.56 864 25.51 -6.2 20.9 77 -9.6 14.7 0
23:46 1035 30.56 864 25.51 -6 21.1 76 -9.7 14.6 0
23:47 1034 30.53 864 25.51 -6.2 20.9 77 -9.6 14.6 0
23:48 1035 30.56 864 25.51 -6.2 20.9 76 -9.8 14.4 0
23:49 1034 30.53 864 25.51 -6.2 20.8 76 -9.8 14.4 0
23:50 1035 30.56 864 25.51 -6.4 20.6 77 -9.8 14.4 0
23:51 1034 30.53 864 25.51 -6.4 20.4 77 -9.8 14.4 0
23:52 1034 30.53 864 25.51 -6.5 20.4 77 -9.8 14.4 0
23:53 1034 30.53 864 25.51 -6.4 20.5 77 -9.8 14.3 0
23:54 1034 30.53 864 25.51 -6.3 20.7 76 -9.8 14.3 0
23:55 1034 30.53 864 25.51 -6.2 20.9 76 -9.8 14.3 0
23:56 1034 30.53 864 25.51 -6.2 20.9 75 -9.9 14.2 0
23:57 1034 30.53 864 25.51 -6 21.1 74 -10 14 0
23:58 1035 30.56 864 25.51 -5.7 21.7 72 -10 14 0
23:59 1035 30.56 864 25.51 -5.5 22.1 71 -9.9 14.2 0
24:00 1035 30.56 864 25.51 -5.6 21.9 73 -9.8 14.4 0